Observation data for Fort McKavett on 08/15/2019      Previous  Date       Current Mesonet Observations  Soil Data  Daily Summary Page  Observations in Plain Language
KMC1 150500Z 05004KT 22/19 A3011 RMK A01 T02240186  RH  079%=      5-min Rain = 0
KMC1 150501Z 05004KT 22/19 A3011 RMK A01 T02240186  RH  079%=      5-min Rain = 0
KMC1 150502Z 04005KT 22/19 A3011 RMK A01 T02230186  RH  079%=      5-min Rain = 0
KMC1 150503Z 04006KT 22/19 A3012 RMK A01 T02230186  RH  079%=      5-min Rain = 0
KMC1 150504Z 05006KT 22/19 A3012 RMK A01 T02230187  RH  080%=      5-min Rain = 0
KMC1 150505Z 05005KT 22/19 A3012 RMK A01 T02220187  RH  080%=      5-min Rain = 0
KMC1 150506Z 05005KT 22/19 A3012 RMK A01 T02220187  RH  081%=      5-min Rain = 0
KMC1 150507Z 05005KT 22/19 A3012 RMK A01 T02210187  RH  081%=      5-min Rain = 0
KMC1 150508Z 05004KT 22/19 A3012 RMK A01 T02200187  RH  081%=      5-min Rain = 0
KMC1 150509Z 06004KT 22/19 A3012 RMK A01 T02200187  RH  081%=      5-min Rain = 0
KMC1 150510Z 06004KT 22/19 A3012 RMK A01 T02200187  RH  081%=      5-min Rain = 0
KMC1 150511Z 06004KT 22/19 A3012 RMK A01 T02200186  RH  081%=      5-min Rain = 0
KMC1 150512Z 06004KT 22/19 A3012 RMK A01 T02190185  RH  081%=      5-min Rain = 0
KMC1 150513Z 06005KT 22/19 A3012 RMK A01 T02200185  RH  081%=      5-min Rain = 0
KMC1 150514Z 06004KT 22/19 A3012 RMK A01 T02200185  RH  081%=      5-min Rain = 0
KMC1 150515Z 06003KT 22/18 A3012 RMK A01 T02200184  RH  080%=      5-min Rain = 0
KMC1 150516Z 06004KT 22/18 A3012 RMK A01 T02200184  RH  080%=      5-min Rain = 0
KMC1 150517Z 06004KT 22/19 A3012 RMK A01 T02210185  RH  080%=      5-min Rain = 0
KMC1 150518Z 07004KT 22/18 A3012 RMK A01 T02200184  RH  080%=      5-min Rain = 0
KMC1 150519Z 06004KT 22/18 A3012 RMK A01 T02210184  RH  080%=      5-min Rain = 0
KMC1 150520Z 06003KT 22/18 A3012 RMK A01 T02210184  RH  079%=      5-min Rain = 0
KMC1 150521Z 07003KT 22/18 A3012 RMK A01 T02210184  RH  079%=      5-min Rain = 0
KMC1 150522Z 06003KT 22/18 A3012 RMK A01 T02210184  RH  079%=      5-min Rain = 0
KMC1 150523Z 06004KT 22/18 A3012 RMK A01 T02210184  RH  079%=      5-min Rain = 0
KMC1 150524Z 06004KT 22/18 A3012 RMK A01 T02210184  RH  079%=      5-min Rain = 0
KMC1 150525Z 05004KT 22/18 A3012 RMK A01 T02210184  RH  079%=      5-min Rain = 0
KMC1 150526Z 07004KT 22/18 A3012 RMK A01 T02210184  RH  079%=      5-min Rain = 0
KMC1 150527Z 06004KT 22/18 A3012 RMK A01 T02210184  RH  079%=      5-min Rain = 0
KMC1 150528Z 07002KT 22/18 A3012 RMK A01 T02210184  RH  079%=      5-min Rain = 0
KMC1 150529Z 05003KT 22/18 A3012 RMK A01 T02210184  RH  079%=      5-min Rain = 0
KMC1 150530Z 05004KT 22/18 A3012 RMK A01 T02210184  RH  079%=      5-min Rain = 0
KMC1 150531Z 05005KT 22/18 A3012 RMK A01 T02210184  RH  080%=      5-min Rain = 0
KMC1 150532Z 05004KT 22/18 A3012 RMK A01 T02210184  RH  079%=      5-min Rain = 0
KMC1 150533Z 06004KT 22/18 A3012 RMK A01 T02210184  RH  079%=      5-min Rain = 0
KMC1 150534Z 06003KT 22/18 A3012 RMK A01 T02210184  RH  079%=      5-min Rain = 0
KMC1 150535Z 06003KT 22/18 A3012 RMK A01 T02210184  RH  080%=      5-min Rain = 0
KMC1 150536Z 06003KT 22/18 A3012 RMK A01 T02200184  RH  080%=      5-min Rain = 0
KMC1 150537Z 06004KT 22/18 A3012 RMK A01 T02200184  RH  080%=      5-min Rain = 0
KMC1 150538Z 06004KT 22/18 A3012 RMK A01 T02200184  RH  080%=      5-min Rain = 0
KMC1 150539Z 06004KT 22/18 A3012 RMK A01 T02200184  RH  080%=      5-min Rain = 0
KMC1 150540Z 07004KT 22/18 A3012 RMK A01 T02200184  RH  080%=      5-min Rain = 0
KMC1 150541Z 06003KT 22/18 A3012 RMK A01 T02200184  RH  080%=      5-min Rain = 0
KMC1 150542Z 06003KT 22/18 A3012 RMK A01 T02200184  RH  080%=      5-min Rain = 0
KMC1 150543Z 06004KT 22/18 A3012 RMK A01 T02190184  RH  080%=      5-min Rain = 0
KMC1 150544Z 05004KT 22/18 A3012 RMK A01 T02190184  RH  080%=      5-min Rain = 0
KMC1 150545Z 06003KT 22/18 A3012 RMK A01 T02190184  RH  080%=      5-min Rain = 0
KMC1 150546Z 06003KT 22/18 A3012 RMK A01 T02190184  RH  081%=      5-min Rain = 0
KMC1 150547Z 06003KT 22/18 A3012 RMK A01 T02190184  RH  081%=      5-min Rain = 0
KMC1 150548Z 06003KT 22/18 A3012 RMK A01 T02190184  RH  081%=      5-min Rain = 0
KMC1 150549Z 06003KT 22/18 A3012 RMK A01 T02190184  RH  081%=      5-min Rain = 0
KMC1 150550Z 06003KT 22/18 A3012 RMK A01 T02190184  RH  081%=      5-min Rain = 0
KMC1 150551Z 06003KT 22/18 A3012 RMK A01 T02190184  RH  081%=      5-min Rain = 0
KMC1 150552Z 07003KT 22/18 A3012 RMK A01 T02180184  RH  081%=      5-min Rain = 0
KMC1 150553Z 07003KT 22/18 A3012 RMK A01 T02180184  RH  081%=      5-min Rain = 0
KMC1 150554Z 07003KT 22/18 A3012 RMK A01 T02180184  RH  081%=      5-min Rain = 0
KMC1 150555Z 07003KT 22/18 A3012 RMK A01 T02180184  RH  081%=      5-min Rain = 0
KMC1 150556Z 07003KT 22/18 A3012 RMK A01 T02170184  RH  081%=      5-min Rain = 0
KMC1 150557Z 07003KT 22/18 A3012 RMK A01 T02170184  RH  081%=      5-min Rain = 0
KMC1 150558Z 07004KT 22/18 A3012 RMK A01 T02170184  RH  081%=      5-min Rain = 0
KMC1 150559Z 06003KT 22/18 A3012 RMK A01 T02170184  RH  081%=      5-min Rain = 0
KMC1 150600Z 06003KT 22/18 A3012 RMK A01 T02170184  RH  082%=      5-min Rain = 0
KMC1 150601Z 07003KT 22/18 A3012 RMK A01 T02160184  RH  082%=      5-min Rain = 0
KMC1 150602Z 07003KT 22/18 A3012 RMK A01 T02170184  RH  082%=      5-min Rain = 0
KMC1 150603Z 07004KT 22/18 A3012 RMK A01 T02160184  RH  082%=      5-min Rain = 0
KMC1 150604Z 07004KT 22/18 A3012 RMK A01 T02160184  RH  082%=      5-min Rain = 0
KMC1 150605Z 07004KT 22/18 A3012 RMK A01 T02160184  RH  082%=      5-min Rain = 0
KMC1 150606Z 08003KT 22/18 A3012 RMK A01 T02160184  RH  082%=      5-min Rain = 0
KMC1 150607Z 08003KT 22/18 A3012 RMK A01 T02160184  RH  082%=      5-min Rain = 0
KMC1 150608Z 08004KT 22/18 A3012 RMK A01 T02160184  RH  082%=      5-min Rain = 0
KMC1 150609Z 08004KT 22/18 A3012 RMK A01 T02160184  RH  082%=      5-min Rain = 0
KMC1 150610Z 07004KT 22/18 A3012 RMK A01 T02160184  RH  082%=      5-min Rain = 0
KMC1 150611Z 07004KT 22/18 A3012 RMK A01 T02160184  RH  082%=      5-min Rain = 0
KMC1 150612Z 07004KT 22/18 A3012 RMK A01 T02160183  RH  082%=      5-min Rain = 0
KMC1 150613Z 07004KT 22/18 A3012 RMK A01 T02160183  RH  082%=      5-min Rain = 0
KMC1 150614Z 07003KT 22/18 A3012 RMK A01 T02160183  RH  082%=      5-min Rain = 0
KMC1 150615Z 07002KT 22/18 A3012 RMK A01 T02160184  RH  082%=      5-min Rain = 0
KMC1 150616Z 07003KT 22/18 A3012 RMK A01 T02150183  RH  082%=      5-min Rain = 0
KMC1 150617Z 06003KT 22/18 A3012 RMK A01 T02150184  RH  082%=      5-min Rain = 0
KMC1 150618Z 06003KT 22/18 A3012 RMK A01 T02150184  RH  082%=      5-min Rain = 0
KMC1 150619Z 07003KT 22/18 A3012 RMK A01 T02150184  RH  082%=      5-min Rain = 0
KMC1 150620Z 07003KT 22/18 A3012 RMK A01 T02150184  RH  083%=      5-min Rain = 0
KMC1 150621Z 07003KT 22/18 A3012 RMK A01 T02150184  RH  083%=      5-min Rain = 0
KMC1 150622Z 07003KT 21/18 A3012 RMK A01 T02140184  RH  083%=      5-min Rain = 0
KMC1 150623Z 07003KT 22/18 A3012 RMK A01 T02150184  RH  083%=      5-min Rain = 0
KMC1 150624Z 07003KT 21/18 A3012 RMK A01 T02140184  RH  083%=      5-min Rain = 0
KMC1 150625Z 07003KT 21/18 A3012 RMK A01 T02140183  RH  083%=      5-min Rain = 0
KMC1 150626Z 07003KT 21/18 A3011 RMK A01 T02140183  RH  083%=      5-min Rain = 0
KMC1 150627Z 08003KT 21/18 A3011 RMK A01 T02140184  RH  083%=      5-min Rain = 0
KMC1 150628Z 08003KT 21/18 A3011 RMK A01 T02140183  RH  083%=      5-min Rain = 0
KMC1 150629Z 08004KT 21/18 A3011 RMK A01 T02140184  RH  083%=      5-min Rain = 0
KMC1 150630Z 08004KT 21/18 A3011 RMK A01 T02140183  RH  083%=      5-min Rain = 0
KMC1 150631Z 08003KT 21/18 A3011 RMK A01 T02140183  RH  082%=      5-min Rain = 0
KMC1 150632Z 08003KT 21/18 A3011 RMK A01 T02140183  RH  082%=      5-min Rain = 0
KMC1 150633Z 07003KT 21/18 A3011 RMK A01 T02140183  RH  082%=      5-min Rain = 0
KMC1 150634Z 07003KT 21/18 A3011 RMK A01 T02140183  RH  082%=      5-min Rain = 0
KMC1 150635Z 07003KT 21/18 A3011 RMK A01 T02140183  RH  082%=      5-min Rain = 0
KMC1 150636Z 07003KT 21/18 A3011 RMK A01 T02140183  RH  082%=      5-min Rain = 0
KMC1 150637Z 07003KT 21/18 A3011 RMK A01 T02140183  RH  082%=      5-min Rain = 0
KMC1 150638Z 07004KT 21/18 A3011 RMK A01 T02140183  RH  082%=      5-min Rain = 0
KMC1 150639Z 08004KT 21/18 A3011 RMK A01 T02140183  RH  082%=      5-min Rain = 0
KMC1 150640Z 08004KT 21/18 A3011 RMK A01 T02140183  RH  082%=      5-min Rain = 0
KMC1 150641Z 08004KT 21/18 A3011 RMK A01 T02140183  RH  082%=      5-min Rain = 0
KMC1 150642Z 08003KT 21/18 A3011 RMK A01 T02140182  RH  082%=      5-min Rain = 0
KMC1 150643Z 08003KT 21/18 A3011 RMK A01 T02140182  RH  082%=      5-min Rain = 0
KMC1 150644Z 08003KT 21/18 A3011 RMK A01 T02140182  RH  082%=      5-min Rain = 0
KMC1 150645Z 07003KT 21/18 A3011 RMK A01 T02140182  RH  082%=      5-min Rain = 0
KMC1 150646Z 06002KT 21/18 A3011 RMK A01 T02140182  RH  082%=      5-min Rain = 0
KMC1 150647Z 06002KT 21/18 A3011 RMK A01 T02140183  RH  082%=      5-min Rain = 0
KMC1 150648Z 06002KT 21/18 A3011 RMK A01 T02140183  RH  082%=      5-min Rain = 0
KMC1 150649Z 06002KT 21/18 A3011 RMK A01 T02130182  RH  082%=      5-min Rain = 0
KMC1 150650Z 06002KT 21/18 A3011 RMK A01 T02140182  RH  082%=      5-min Rain = 0
KMC1 150651Z 06002KT 21/18 A3011 RMK A01 T02140182  RH  082%=      5-min Rain = 0
KMC1 150652Z 06002KT 21/18 A3011 RMK A01 T02140182  RH  082%=      5-min Rain = 0
KMC1 150653Z 05002KT 21/18 A3011 RMK A01 T02140182  RH  082%=      5-min Rain = 0
KMC1 150654Z 04002KT 21/18 A3011 RMK A01 T02140182  RH  082%=      5-min Rain = 0
KMC1 150655Z 04002KT 21/18 A3011 RMK A01 T02140182  RH  082%=      5-min Rain = 0
KMC1 150656Z 04002KT 21/18 A3011 RMK A01 T02140182  RH  082%=      5-min Rain = 0
KMC1 150657Z 03001KT 22/18 A3011 RMK A01 T02150183  RH  082%=      5-min Rain = 0
KMC1 150658Z 04002KT 22/18 A3011 RMK A01 T02150183  RH  082%=      5-min Rain = 0
KMC1 150659Z 04002KT 22/18 A3011 RMK A01 T02160183  RH  082%=      5-min Rain = 0
KMC1 150700Z 04001KT 22/18 A3011 RMK A01 T02160183  RH  081%=      5-min Rain = 0
KMC1 150701Z 04001KT 22/18 A3011 RMK A01 T02160183  RH  081%=      5-min Rain = 0
KMC1 150702Z 03001KT 22/18 A3011 RMK A01 T02170183  RH  081%=      5-min Rain = 0
KMC1 150703Z 03001KT 22/18 A3011 RMK A01 T02170183  RH  081%=      5-min Rain = 0
KMC1 150704Z 02001KT 22/18 A3011 RMK A01 T02170182  RH  081%=      5-min Rain = 0
KMC1 150705Z 02001KT 22/18 A3011 RMK A01 T02170182  RH  081%=      5-min Rain = 0
KMC1 150706Z 02001KT 22/18 A3011 RMK A01 T02170182  RH  081%=      5-min Rain = 0
KMC1 150707Z 02001KT 22/18 A3011 RMK A01 T02160182  RH  081%=      5-min Rain = 0
KMC1 150708Z 02000KT 22/18 A3011 RMK A01 T02150182  RH  082%=      5-min Rain = 0
KMC1 150709Z 00000KT 21/18 A3011 RMK A01 T02140182  RH  082%=      5-min Rain = 0
KMC1 150710Z 02000KT 21/18 A3011 RMK A01 T02130181  RH  082%=      5-min Rain = 0
KMC1 150711Z 03001KT 21/18 A3011 RMK A01 T02130181  RH  082%=      5-min Rain = 0
KMC1 150712Z 04001KT 21/18 A3011 RMK A01 T02120181  RH  082%=      5-min Rain = 0
KMC1 150713Z 04001KT 21/18 A3011 RMK A01 T02120182  RH  083%=      5-min Rain = 0
KMC1 150714Z 05002KT 21/18 A301 RMK A01 T02110182  RH  083%=      5-min Rain = 0
KMC1 150715Z 05002KT 21/18 A301 RMK A01 T02110182  RH  083%=      5-min Rain = 0
KMC1 150716Z 06002KT 21/18 A301 RMK A01 T02110181  RH  083%=      5-min Rain = 0
KMC1 150717Z 06002KT 21/18 A301 RMK A01 T02100181  RH  084%=      5-min Rain = 0
KMC1 150718Z 07002KT 21/18 A301 RMK A01 T02090180  RH  084%=      5-min Rain = 0
KMC1 150719Z 07002KT 21/18 A301 RMK A01 T02080179  RH  083%=      5-min Rain = 0
KMC1 150720Z 07002KT 21/18 A301 RMK A01 T02070179  RH  084%=      5-min Rain = 0
KMC1 150721Z 06002KT 21/18 A301 RMK A01 T02070179  RH  084%=      5-min Rain = 0
KMC1 150722Z 05002KT 21/18 A301 RMK A01 T02060179  RH  084%=      5-min Rain = 0
KMC1 150723Z 05002KT 21/18 A301 RMK A01 T02060178  RH  084%=      5-min Rain = 0
KMC1 150724Z 05002KT 21/18 A301 RMK A01 T02050178  RH  084%=      5-min Rain = 0
KMC1 150725Z 05001KT 21/18 A301 RMK A01 T02050178  RH  085%=      5-min Rain = 0
KMC1 150726Z 04001KT 21/18 A301 RMK A01 T02050178  RH  085%=      5-min Rain = 0
KMC1 150727Z 03001KT 21/18 A301 RMK A01 T02050179  RH  085%=      5-min Rain = 0
KMC1 150728Z 01001KT 20/18 A301 RMK A01 T02040180  RH  086%=      5-min Rain = 0
KMC1 150729Z 34001KT 20/18 A301 RMK A01 T02040181  RH  086%=      5-min Rain = 0
KMC1 150730Z 31001KT 21/18 A301 RMK A01 T02050180  RH  086%=      5-min Rain = 0
KMC1 150731Z 29001KT 20/18 A301 RMK A01 T02040179  RH  085%=      5-min Rain = 0
KMC1 150732Z 29001KT 20/18 A301 RMK A01 T02040180  RH  086%=      5-min Rain = 0
KMC1 150733Z 30001KT 20/18 A301 RMK A01 T02040179  RH  086%=      5-min Rain = 0
KMC1 150734Z 29001KT 20/18 A301 RMK A01 T02040179  RH  086%=      5-min Rain = 0
KMC1 150735Z 29001KT 20/18 A301 RMK A01 T02030180  RH  086%=      5-min Rain = 0
KMC1 150736Z 29001KT 20/18 A301 RMK A01 T02030180  RH  087%=      5-min Rain = 0
KMC1 150737Z 28002KT 20/18 A301 RMK A01 T02030180  RH  087%=      5-min Rain = 0
KMC1 150738Z 28002KT 20/18 A301 RMK A01 T02030180  RH  087%=      5-min Rain = 0
KMC1 150739Z 28002KT 20/18 A301 RMK A01 T02030181  RH  087%=      5-min Rain = 0
KMC1 150740Z 28002KT 20/18 A301 RMK A01 T02030182  RH  088%=      5-min Rain = 0
KMC1 150741Z 28002KT 20/18 A301 RMK A01 T02030182  RH  088%=      5-min Rain = 0
KMC1 150742Z 27002KT 20/18 A301 RMK A01 T02030182  RH  088%=      5-min Rain = 0
KMC1 150743Z 27002KT 20/18 A301 RMK A01 T02030182  RH  088%=      5-min Rain = 0
KMC1 150744Z 27002KT 20/18 A301 RMK A01 T02030182  RH  088%=      5-min Rain = 0
KMC1 150745Z 27002KT 20/18 A301 RMK A01 T02020182  RH  088%=      5-min Rain = 0
KMC1 150746Z 26002KT 20/18 A301 RMK A01 T02020182  RH  088%=      5-min Rain = 0
KMC1 150747Z 25001KT 20/18 A301 RMK A01 T02020183  RH  089%=      5-min Rain = 0
KMC1 150748Z 24001KT 20/18 A301 RMK A01 T02020183  RH  089%=      5-min Rain = 0
KMC1 150749Z 24002KT 20/19 A301 RMK A01 T02020185  RH  090%=      5-min Rain = 0
KMC1 150750Z 24002KT 20/18 A301 RMK A01 T02010184  RH  090%=      5-min Rain = 0
KMC1 150751Z 24001KT 20/18 A301 RMK A01 T02010184  RH  090%=      5-min Rain = 0
KMC1 150752Z 24001KT 20/18 A301 RMK A01 T02010184  RH  090%=      5-min Rain = 0
KMC1 150753Z 25001KT 20/18 A301 RMK A01 T02010184  RH  090%=      5-min Rain = 0
KMC1 150754Z 25001KT 20/18 A301 RMK A01 T02010184  RH  090%=      5-min Rain = 0
KMC1 150755Z 26001KT 20/18 A301 RMK A01 T02000183  RH  090%=      5-min Rain = 0
KMC1 150756Z 27001KT 20/18 A301 RMK A01 T02000183  RH  090%=      5-min Rain = 0
KMC1 150757Z 27001KT 20/18 A301 RMK A01 T02000184  RH  090%=      5-min Rain = 0
KMC1 150758Z 27001KT 20/18 A301 RMK A01 T02000184  RH  090%=      5-min Rain = 0
KMC1 150759Z 27001KT 20/18 A301 RMK A01 T02000184  RH  090%=      5-min Rain = 0
KMC1 150800Z 27001KT 20/18 A301 RMK A01 T02000184  RH  091%=      5-min Rain = 0
KMC1 150801Z 27001KT 20/18 A301 RMK A01 T02000184  RH  091%=      5-min Rain = 0
KMC1 150802Z 27001KT 20/18 A301 RMK A01 T02000184  RH  091%=      5-min Rain = 0
KMC1 150803Z 26002KT 20/18 A301 RMK A01 T02000184  RH  090%=      5-min Rain = 0
KMC1 150804Z 25001KT 20/18 A301 RMK A01 T02000184  RH  090%=      5-min Rain = 0
KMC1 150805Z 25001KT 20/18 A301 RMK A01 T02000182  RH  090%=      5-min Rain = 0
KMC1 150806Z 25001KT 20/18 A301 RMK A01 T02000182  RH  089%=      5-min Rain = 0
KMC1 150807Z 25001KT 20/18 A301 RMK A01 T01990182  RH  090%=      5-min Rain = 0
KMC1 150808Z 25001KT 20/18 A301 RMK A01 T02000182  RH  090%=      5-min Rain = 0
KMC1 150809Z 25001KT 20/18 A301 RMK A01 T02000183  RH  090%=      5-min Rain = 0
KMC1 150810Z 25001KT 20/18 A301 RMK A01 T02000183  RH  090%=      5-min Rain = 0
KMC1 150811Z 25002KT 20/18 A301 RMK A01 T01990183  RH  090%=      5-min Rain = 0
KMC1 150812Z 25002KT 20/18 A301 RMK A01 T02000183  RH  090%=      5-min Rain = 0
KMC1 150813Z 25002KT 20/18 A301 RMK A01 T01990182  RH  090%=      5-min Rain = 0
KMC1 150814Z 26002KT 20/18 A301 RMK A01 T01990182  RH  090%=      5-min Rain = 0
KMC1 150815Z 26002KT 20/18 A301 RMK A01 T01990182  RH  090%=      5-min Rain = 0
KMC1 150816Z 27002KT 20/18 A301 RMK A01 T01990182  RH  090%=      5-min Rain = 0
KMC1 150817Z 27002KT 20/18 A301 RMK A01 T01990182  RH  090%=      5-min Rain = 0
KMC1 150818Z 27002KT 20/18 A301 RMK A01 T02000182  RH  090%=      5-min Rain = 0
KMC1 150819Z 26002KT 20/18 A301 RMK A01 T02000182  RH  090%=      5-min Rain = 0
KMC1 150820Z 26002KT 20/18 A301 RMK A01 T02000183  RH  090%=      5-min Rain = 0
KMC1 150821Z 25002KT 20/18 A301 RMK A01 T01990183  RH  090%=      5-min Rain = 0
KMC1 150822Z 24002KT 20/18 A301 RMK A01 T02000183  RH  090%=      5-min Rain = 0
KMC1 150823Z 24002KT 20/18 A301 RMK A01 T02000182  RH  090%=      5-min Rain = 0
KMC1 150824Z 24002KT 20/18 A301 RMK A01 T02000183  RH  090%=      5-min Rain = 0
KMC1 150825Z 23002KT 20/18 A301 RMK A01 T02000182  RH  089%=      5-min Rain = 0
KMC1 150826Z 23002KT 20/18 A301 RMK A01 T02000182  RH  089%=      5-min Rain = 0
KMC1 150827Z 23002KT 20/18 A301 RMK A01 T02000182  RH  090%=      5-min Rain = 0
KMC1 150828Z 23002KT 20/18 A301 RMK A01 T02000183  RH  090%=      5-min Rain = 0
KMC1 150829Z 23002KT 20/18 A301 RMK A01 T02000183  RH  090%=      5-min Rain = 0
KMC1 150830Z 22002KT 20/18 A301 RMK A01 T02010182  RH  089%=      5-min Rain = 0
KMC1 150831Z 23002KT 20/18 A301 RMK A01 T02010182  RH  089%=      5-min Rain = 0
KMC1 150832Z 23002KT 20/18 A301 RMK A01 T02010182  RH  089%=      5-min Rain = 0
KMC1 150833Z 23002KT 20/18 A301 RMK A01 T02010182  RH  089%=      5-min Rain = 0
KMC1 150834Z 23002KT 20/18 A301 RMK A01 T02010182  RH  089%=      5-min Rain = 0
KMC1 150835Z 23002KT 20/18 A301 RMK A01 T02020182  RH  088%=      5-min Rain = 0
KMC1 150836Z 22002KT 20/18 A3009 RMK A01 T02020182  RH  088%=      5-min Rain = 0
KMC1 150837Z 23002KT 20/18 A3009 RMK A01 T02020182  RH  088%=      5-min Rain = 0
KMC1 150838Z 23002KT 20/18 A3009 RMK A01 T02020182  RH  088%=      5-min Rain = 0
KMC1 150839Z 24002KT 20/18 A3009 RMK A01 T02020181  RH  088%=      5-min Rain = 0
KMC1 150840Z 24002KT 20/18 A3009 RMK A01 T02010182  RH  089%=      5-min Rain = 0
KMC1 150841Z 25002KT 20/18 A3009 RMK A01 T02010182  RH  089%=      5-min Rain = 0
KMC1 150842Z 26002KT 20/18 A3009 RMK A01 T02010182  RH  089%=      5-min Rain = 0
KMC1 150843Z 26002KT 20/18 A3009 RMK A01 T02020182  RH  089%=      5-min Rain = 0
KMC1 150844Z 26002KT 20/18 A3009 RMK A01 T02020183  RH  089%=      5-min Rain = 0
KMC1 150845Z 25002KT 20/18 A3009 RMK A01 T02020182  RH  088%=      5-min Rain = 0
KMC1 150846Z 25002KT 20/18 A3009 RMK A01 T02020183  RH  088%=      5-min Rain = 0
KMC1 150847Z 25002KT 20/18 A3009 RMK A01 T02020182  RH  088%=      5-min Rain = 0
KMC1 150848Z 25002KT 20/18 A3009 RMK A01 T02020182  RH  088%=      5-min Rain = 0
KMC1 150849Z 26003KT 20/18 A3009 RMK A01 T02020181  RH  088%=      5-min Rain = 0
KMC1 150850Z 26003KT 20/18 A3009 RMK A01 T02010181  RH  088%=      5-min Rain = 0
KMC1 150851Z 26003KT 20/18 A3009 RMK A01 T02010181  RH  088%=      5-min Rain = 0
KMC1 150852Z 26003KT 20/18 A3009 RMK A01 T02010181  RH  089%=      5-min Rain = 0
KMC1 150853Z 26002KT 20/18 A3009 RMK A01 T02000181  RH  089%=      5-min Rain = 0
KMC1 150854Z 25002KT 20/18 A3009 RMK A01 T02000181  RH  089%=      5-min Rain = 0
KMC1 150855Z 25002KT 20/18 A3009 RMK A01 T01990180  RH  089%=      5-min Rain = 0
KMC1 150856Z 25002KT 20/18 A3009 RMK A01 T01990181  RH  089%=      5-min Rain = 0
KMC1 150857Z 25001KT 20/18 A3009 RMK A01 T02000181  RH  089%=      5-min Rain = 0
KMC1 150858Z 25001KT 20/18 A3009 RMK A01 T01990181  RH  089%=      5-min Rain = 0
KMC1 150859Z 24001KT 20/18 A3009 RMK A01 T02000181  RH  089%=      5-min Rain = 0
KMC1 150900Z 24001KT 20/18 A3009 RMK A01 T02000181  RH  089%=      5-min Rain = 0
KMC1 150901Z 23001KT 20/18 A3009 RMK A01 T01990181  RH  089%=      5-min Rain = 0
KMC1 150902Z 23001KT 20/18 A3008 RMK A01 T01990182  RH  090%=      5-min Rain = 0
KMC1 150903Z 23001KT 20/18 A3008 RMK A01 T01990181  RH  089%=      5-min Rain = 0
KMC1 150904Z 23002KT 20/18 A3008 RMK A01 T01990181  RH  089%=      5-min Rain = 0
KMC1 150905Z 24002KT 20/18 A3008 RMK A01 T01990181  RH  089%=      5-min Rain = 0
KMC1 150906Z 24002KT 20/18 A3008 RMK A01 T01990181  RH  089%=      5-min Rain = 0
KMC1 150907Z 25002KT 20/18 A3008 RMK A01 T01990181  RH  089%=      5-min Rain = 0
KMC1 150908Z 25002KT 20/18 A3008 RMK A01 T01990182  RH  090%=      5-min Rain = 0
KMC1 150909Z 26002KT 20/18 A3009 RMK A01 T01990182  RH  090%=      5-min Rain = 0
KMC1 150910Z 26002KT 20/18 A3009 RMK A01 T02000182  RH  090%=      5-min Rain = 0
KMC1 150911Z 26001KT 20/18 A3009 RMK A01 T02000183  RH  090%=      5-min Rain = 0
KMC1 150912Z 27001KT 20/18 A3009 RMK A01 T02010183  RH  089%=      5-min Rain = 0
KMC1 150913Z 27001KT 20/18 A3009 RMK A01 T02000182  RH  089%=      5-min Rain = 0
KMC1 150914Z 27001KT 20/18 A3009 RMK A01 T02010182  RH  089%=      5-min Rain = 0
KMC1 150915Z 26000KT 20/18 A3009 RMK A01 T02000181  RH  089%=      5-min Rain = 0
KMC1 150916Z 00000KT 20/18 A3009 RMK A01 T02000182  RH  089%=      5-min Rain = 0
KMC1 150917Z 00000KT 20/18 A3009 RMK A01 T02010181  RH  088%=      5-min Rain = 0
KMC1 150918Z 00000KT 20/18 A3009 RMK A01 T02010181  RH  089%=      5-min Rain = 0
KMC1 150919Z 00000KT 20/18 A3009 RMK A01 T02000181  RH  088%=      5-min Rain = 0
KMC1 150920Z 00000KT 20/18 A3009 RMK A01 T02000180  RH  088%=      5-min Rain = 0
KMC1 150921Z 00000KT 20/18 A3009 RMK A01 T01990179  RH  088%=      5-min Rain = 0
KMC1 150922Z 00000KT 20/18 A3009 RMK A01 T01990179  RH  088%=      5-min Rain = 0
KMC1 150923Z 00000KT 20/18 A3009 RMK A01 T01990179  RH  089%=      5-min Rain = 0
KMC1 150924Z 30000KT 20/18 A3009 RMK A01 T01980179  RH  089%=      5-min Rain = 0
KMC1 150925Z 30000KT 20/18 A3009 RMK A01 T01980180  RH  089%=      5-min Rain = 0
KMC1 150926Z 00000KT 20/18 A3009 RMK A01 T01980180  RH  089%=      5-min Rain = 0
KMC1 150927Z 00000KT 20/18 A3009 RMK A01 T01980181  RH  090%=      5-min Rain = 0
KMC1 150928Z 00000KT 20/18 A3009 RMK A01 T01980181  RH  090%=      5-min Rain = 0
KMC1 150929Z 00000KT 20/18 A3009 RMK A01 T01970182  RH  091%=      5-min Rain = 0
KMC1 150930Z 00000KT 20/18 A3009 RMK A01 T01970182  RH  091%=      5-min Rain = 0
KMC1 150931Z 00000KT 20/18 A3009 RMK A01 T01980182  RH  091%=      5-min Rain = 0
KMC1 150932Z 00000KT 20/18 A3009 RMK A01 T01980182  RH  091%=      5-min Rain = 0
KMC1 150933Z 24000KT 20/18 A3009 RMK A01 T01980182  RH  091%=      5-min Rain = 0
KMC1 150934Z 24001KT 20/18 A3009 RMK A01 T01980181  RH  090%=      5-min Rain = 0
KMC1 150935Z 24001KT 20/18 A3009 RMK A01 T01980180  RH  089%=      5-min Rain = 0
KMC1 150936Z 24001KT 20/18 A3008 RMK A01 T01980180  RH  089%=      5-min Rain = 0
KMC1 150937Z 24001KT 20/18 A3008 RMK A01 T01970179  RH  089%=      5-min Rain = 0
KMC1 150938Z 24001KT 20/18 A3009 RMK A01 T01970181  RH  090%=      5-min Rain = 0
KMC1 150939Z 24001KT 20/18 A3009 RMK A01 T01970181  RH  090%=      5-min Rain = 0
KMC1 150940Z 24001KT 20/18 A3009 RMK A01 T01970182  RH  091%=      5-min Rain = 0
KMC1 150941Z 24002KT 20/18 A3009 RMK A01 T01970182  RH  091%=      5-min Rain = 0
KMC1 150942Z 23002KT 20/18 A3009 RMK A01 T01980181  RH  090%=      5-min Rain = 0
KMC1 150943Z 23002KT 20/18 A3008 RMK A01 T01970179  RH  089%=      5-min Rain = 0
KMC1 150944Z 23002KT 20/18 A3008 RMK A01 T01970178  RH  089%=      5-min Rain = 0
KMC1 150945Z 23002KT 20/18 A3008 RMK A01 T01970178  RH  089%=      5-min Rain = 0
KMC1 150946Z 23002KT 20/18 A3008 RMK A01 T01970179  RH  089%=      5-min Rain = 0
KMC1 150947Z 24002KT 20/18 A3008 RMK A01 T01970179  RH  090%=      5-min Rain = 0
KMC1 150948Z 24002KT 20/18 A3008 RMK A01 T01970181  RH  090%=      5-min Rain = 0
KMC1 150949Z 25002KT 20/18 A3008 RMK A01 T01970180  RH  090%=      5-min Rain = 0
KMC1 150950Z 25002KT 20/18 A3008 RMK A01 T01970179  RH  090%=      5-min Rain = 0
KMC1 150951Z 25002KT 20/18 A3008 RMK A01 T01960178  RH  089%=      5-min Rain = 0
KMC1 150952Z 25001KT 20/18 A3008 RMK A01 T01950178  RH  090%=      5-min Rain = 0
KMC1 150953Z 25001KT 20/18 A3008 RMK A01 T01950178  RH  090%=      5-min Rain = 0
KMC1 150954Z 24001KT 20/18 A3008 RMK A01 T01950178  RH  090%=      5-min Rain = 0
KMC1 150955Z 23002KT 19/18 A3008 RMK A01 T01940177  RH  090%=      5-min Rain = 0
KMC1 150956Z 23001KT 19/18 A3008 RMK A01 T01940177  RH  090%=      5-min Rain = 0
KMC1 150957Z 23001KT 19/18 A3008 RMK A01 T01940177  RH  090%=      5-min Rain = 0
KMC1 150958Z 23001KT 19/18 A3008 RMK A01 T01940177  RH  090%=      5-min Rain = 0
KMC1 150959Z 23001KT 19/18 A3008 RMK A01 T01930176  RH  090%=      5-min Rain = 0
KMC1 151000Z 23001KT 19/18 A3008 RMK A01 T01930176  RH  090%=      5-min Rain = 0
KMC1 151001Z 24001KT 19/18 A3008 RMK A01 T01930175  RH  090%=      5-min Rain = 0
KMC1 151002Z 25001KT 19/18 A3008 RMK A01 T01920175  RH  090%=      5-min Rain = 0
KMC1 151003Z 26001KT 19/18 A3008 RMK A01 T01920175  RH  090%=      5-min Rain = 0
KMC1 151004Z 26001KT 19/18 A3008 RMK A01 T01920175  RH  090%=      5-min Rain = 0
KMC1 151005Z 26001KT 19/18 A3008 RMK A01 T01920175  RH  090%=      5-min Rain = 0
KMC1 151006Z 25001KT 19/17 A3008 RMK A01 T01910174  RH  090%=      5-min Rain = 0
KMC1 151007Z 24002KT 19/17 A3008 RMK A01 T01910174  RH  090%=      5-min Rain = 0
KMC1 151008Z 23002KT 19/17 A3008 RMK A01 T01910173  RH  090%=      5-min Rain = 0
KMC1 151009Z 23002KT 19/17 A3008 RMK A01 T01910174  RH  090%=      5-min Rain = 0
KMC1 151010Z 23002KT 19/17 A3008 RMK A01 T01900173  RH  090%=      5-min Rain = 0
KMC1 151011Z 22002KT 19/17 A3008 RMK A01 T01900173  RH  090%=      5-min Rain = 0
KMC1 151012Z 22002KT 19/17 A3008 RMK A01 T01900173  RH  090%=      5-min Rain = 0
KMC1 151013Z 22003KT 19/17 A3008 RMK A01 T01890173  RH  090%=      5-min Rain = 0
KMC1 151014Z 21003KT 19/17 A3008 RMK A01 T01890173  RH  090%=      5-min Rain = 0
KMC1 151015Z 21003KT 19/17 A3009 RMK A01 T01890173  RH  091%=      5-min Rain = 0
KMC1 151016Z 20003KT 19/17 A3009 RMK A01 T01900174  RH  091%=      5-min Rain = 0
KMC1 151017Z 19003KT 19/17 A3009 RMK A01 T01890174  RH  091%=      5-min Rain = 0
KMC1 151018Z 19003KT 19/17 A3009 RMK A01 T01890174  RH  091%=      5-min Rain = 0
KMC1 151019Z 19003KT 19/17 A3009 RMK A01 T01890174  RH  091%=      5-min Rain = 0
KMC1 151020Z 19003KT 19/17 A3009 RMK A01 T01890174  RH  091%=      5-min Rain = 0
KMC1 151021Z 19003KT 19/18 A3009 RMK A01 T01890175  RH  092%=      5-min Rain = 0
KMC1 151022Z 19003KT 19/18 A3009 RMK A01 T01890175  RH  092%=      5-min Rain = 0
KMC1 151023Z 19003KT 19/18 A3009 RMK A01 T01890176  RH  092%=      5-min Rain = 0
KMC1 151024Z 19003KT 19/18 A3009 RMK A01 T01890176  RH  092%=      5-min Rain = 0
KMC1 151025Z 19003KT 19/18 A3009 RMK A01 T01900176  RH  092%=      5-min Rain = 0
KMC1 151026Z 19003KT 19/18 A3009 RMK A01 T01900176  RH  092%=      5-min Rain = 0
KMC1 151027Z 19003KT 19/18 A3009 RMK A01 T01900177  RH  092%=      5-min Rain = 0
KMC1 151028Z 19003KT 19/18 A3009 RMK A01 T01910177  RH  092%=      5-min Rain = 0
KMC1 151029Z 18004KT 19/18 A3009 RMK A01 T01910178  RH  092%=      5-min Rain = 0
KMC1 151030Z 18004KT 19/18 A3009 RMK A01 T01920178  RH  091%=      5-min Rain = 0
KMC1 151031Z 18003KT 19/18 A3009 RMK A01 T01920178  RH  092%=      5-min Rain = 0
KMC1 151032Z 18003KT 19/18 A3009 RMK A01 T01930178  RH  091%=      5-min Rain = 0
KMC1 151033Z 18003KT 19/18 A3009 RMK A01 T01930178  RH  091%=      5-min Rain = 0
KMC1 151034Z 17003KT 19/18 A3009 RMK A01 T01930179  RH  092%=      5-min Rain = 0
KMC1 151035Z 18003KT 19/18 A3009 RMK A01 T01930179  RH  092%=      5-min Rain = 0
KMC1 151036Z 18003KT 19/18 A3009 RMK A01 T01930179  RH  092%=      5-min Rain = 0
KMC1 151037Z 19003KT 19/18 A3009 RMK A01 T01930180  RH  092%=      5-min Rain = 0
KMC1 151038Z 20003KT 19/18 A3009 RMK A01 T01940180  RH  092%=      5-min Rain = 0
KMC1 151039Z 19003KT 19/18 A3009 RMK A01 T01940179  RH  091%=      5-min Rain = 0
KMC1 151040Z 19003KT 19/18 A3009 RMK A01 T01940179  RH  091%=      5-min Rain = 0
KMC1 151041Z 20003KT 19/18 A3008 RMK A01 T01940179  RH  091%=      5-min Rain = 0
KMC1 151042Z 19003KT 19/18 A3008 RMK A01 T01940178  RH  091%=      5-min Rain = 0
KMC1 151043Z 19003KT 19/18 A3008 RMK A01 T01940179  RH  091%=      5-min Rain = 0
KMC1 151044Z 19003KT 19/18 A3008 RMK A01 T01940179  RH  091%=      5-min Rain = 0
KMC1 151045Z 19004KT 19/18 A3008 RMK A01 T01940179  RH  091%=      5-min Rain = 0
KMC1 151046Z 19004KT 19/18 A3008 RMK A01 T01940179  RH  091%=      5-min Rain = 0
KMC1 151047Z 19003KT 19/18 A3008 RMK A01 T01940179  RH  091%=      5-min Rain = 0
KMC1 151048Z 19004KT 19/18 A3008 RMK A01 T01940179  RH  091%=      5-min Rain = 0
KMC1 151049Z 19004KT 19/18 A3008 RMK A01 T01940179  RH  091%=      5-min Rain = 0
KMC1 151050Z 19004KT 19/18 A3008 RMK A01 T01940179  RH  091%=      5-min Rain = 0
KMC1 151051Z 19004KT 19/18 A3008 RMK A01 T01940179  RH  091%=      5-min Rain = 0
KMC1 151052Z 19004KT 20/18 A3008 RMK A01 T01950179  RH  091%=      5-min Rain = 0
KMC1 151053Z 19004KT 19/18 A3008 RMK A01 T01940179  RH  091%=      5-min Rain = 0
KMC1 151054Z 19003KT 20/18 A3008 RMK A01 T01950180  RH  091%=      5-min Rain = 0
KMC1 151055Z 18004KT 20/18 A3008 RMK A01 T01950179  RH  090%=      5-min Rain = 0
KMC1 151056Z 18004KT 20/18 A3008 RMK A01 T01950179  RH  090%=      5-min Rain = 0
KMC1 151057Z 18003KT 20/18 A3008 RMK A01 T01950179  RH  090%=      5-min Rain = 0
KMC1 151058Z 18003KT 20/18 A3008 RMK A01 T01950179  RH  090%=      5-min Rain = 0
KMC1 151059Z 19003KT 20/18 A3008 RMK A01 T01950179  RH  090%=      5-min Rain = 0
KMC1 151100Z 19003KT 20/18 A3008 RMK A01 T01960179  RH  090%=      5-min Rain = 0
KMC1 151101Z 19002KT 20/18 A3008 RMK A01 T01960179  RH  090%=      5-min Rain = 0
KMC1 151102Z 19003KT 20/18 A3008 RMK A01 T01960179  RH  090%=      5-min Rain = 0
KMC1 151103Z 19003KT 20/18 A3008 RMK A01 T01960179  RH  090%=      5-min Rain = 0
KMC1 151104Z 19003KT 20/18 A3008 RMK A01 T01960179  RH  090%=      5-min Rain = 0
KMC1 151105Z 19003KT 20/18 A3008 RMK A01 T01950179  RH  090%=      5-min Rain = 0
KMC1 151106Z 19002KT 20/18 A3008 RMK A01 T01950179  RH  090%=      5-min Rain = 0
KMC1 151107Z 19002KT 20/18 A3008 RMK A01 T01950178  RH  090%=      5-min Rain = 0
KMC1 151108Z 19002KT 20/18 A3008 RMK A01 T01950178  RH  090%=      5-min Rain = 0
KMC1 151109Z 20003KT 19/18 A3008 RMK A01 T01940178  RH  090%=      5-min Rain = 0
KMC1 151110Z 21003KT 19/18 A3008 RMK A01 T01940178  RH  091%=      5-min Rain = 0
KMC1 151111Z 21003KT 19/18 A3008 RMK A01 T01930178  RH  091%=      5-min Rain = 0
KMC1 151112Z 21002KT 19/18 A3008 RMK A01 T01930179  RH  091%=      5-min Rain = 0
KMC1 151113Z 21002KT 19/18 A3008 RMK A01 T01930178  RH  091%=      5-min Rain = 0
KMC1 151114Z 22002KT 19/18 A3008 RMK A01 T01920178  RH  091%=      5-min Rain = 0
KMC1 151115Z 22002KT 19/18 A3008 RMK A01 T01920178  RH  091%=      5-min Rain = 0
KMC1 151116Z 23002KT 19/18 A3008 RMK A01 T01920178  RH  091%=      5-min Rain = 0
KMC1 151117Z 24001KT 19/18 A3008 RMK A01 T01920177  RH  091%=      5-min Rain = 0
KMC1 151118Z 25001KT 19/18 A3008 RMK A01 T01920177  RH  091%=      5-min Rain = 0
KMC1 151119Z 25001KT 19/18 A3008 RMK A01 T01910176  RH  091%=      5-min Rain = 0
KMC1 151120Z 26001KT 19/18 A3008 RMK A01 T01910176  RH  091%=      5-min Rain = 0
KMC1 151121Z 25001KT 19/18 A3008 RMK A01 T01900175  RH  091%=      5-min Rain = 0
KMC1 151122Z 25002KT 19/17 A3008 RMK A01 T01900174  RH  091%=      5-min Rain = 0
KMC1 151123Z 27002KT 19/17 A3008 RMK A01 T01890174  RH  091%=      5-min Rain = 0
KMC1 151124Z 28002KT 19/18 A3008 RMK A01 T01890175  RH  091%=      5-min Rain = 0
KMC1 151125Z 28002KT 19/18 A3008 RMK A01 T01890175  RH  092%=      5-min Rain = 0
KMC1 151126Z 27001KT 19/18 A3008 RMK A01 T01890175  RH  092%=      5-min Rain = 0
KMC1 151127Z 27001KT 19/17 A3008 RMK A01 T01890174  RH  091%=      5-min Rain = 0
KMC1 151128Z 26001KT 19/17 A3008 RMK A01 T01880174  RH  091%=      5-min Rain = 0
KMC1 151129Z 26001KT 19/17 A3008 RMK A01 T01880174  RH  091%=      5-min Rain = 0
KMC1 151130Z 25001KT 19/17 A3008 RMK A01 T01880174  RH  091%=      5-min Rain = 0
KMC1 151131Z 25001KT 19/17 A3008 RMK A01 T01880174  RH  091%=      5-min Rain = 0
KMC1 151132Z 25001KT 19/17 A3008 RMK A01 T01880173  RH  091%=      5-min Rain = 0
KMC1 151133Z 25001KT 19/17 A3008 RMK A01 T01870173  RH  091%=      5-min Rain = 0
KMC1 151134Z 25001KT 19/17 A3008 RMK A01 T01870173  RH  091%=      5-min Rain = 0
KMC1 151135Z 25001KT 19/17 A3008 RMK A01 T01870173  RH  091%=      5-min Rain = 0
KMC1 151136Z 25001KT 19/17 A3008 RMK A01 T01870173  RH  091%=      5-min Rain = 0
KMC1 151137Z 25001KT 19/17 A3008 RMK A01 T01860172  RH  091%=      5-min Rain = 0
KMC1 151138Z 25001KT 19/17 A3008 RMK A01 T01860172  RH  091%=      5-min Rain = 0
KMC1 151139Z 24001KT 19/17 A3008 RMK A01 T01860171  RH  091%=      5-min Rain = 0
KMC1 151140Z 23001KT 19/17 A3008 RMK A01 T01850172  RH  092%=      5-min Rain = 0
KMC1 151141Z 22001KT 19/17 A3008 RMK A01 T01850172  RH  092%=      5-min Rain = 0
KMC1 151142Z 21001KT 19/17 A3008 RMK A01 T01850172  RH  092%=      5-min Rain = 0
KMC1 151143Z 21002KT 18/17 A3008 RMK A01 T01840172  RH  092%=      5-min Rain = 0
KMC1 151144Z 20002KT 18/17 A3008 RMK A01 T01840172  RH  092%=      5-min Rain = 0
KMC1 151145Z 20003KT 18/17 A3008 RMK A01 T01840172  RH  093%=      5-min Rain = 0
KMC1 151146Z 19003KT 18/17 A3008 RMK A01 T01840172  RH  092%=      5-min Rain = 0
KMC1 151147Z 19002KT 18/17 A3008 RMK A01 T01840171  RH  092%=      5-min Rain = 0
KMC1 151148Z 19003KT 18/17 A3008 RMK A01 T01830171  RH  093%=      5-min Rain = 0
KMC1 151149Z 18003KT 18/17 A3008 RMK A01 T01840172  RH  093%=      5-min Rain = 0
KMC1 151150Z 17003KT 18/17 A3008 RMK A01 T01840173  RH  094%=      5-min Rain = 0
KMC1 151151Z 16004KT 18/17 A3008 RMK A01 T01840173  RH  094%=      5-min Rain = 0
KMC1 151152Z 17004KT 18/17 A3008 RMK A01 T01830173  RH  094%=      5-min Rain = 0
KMC1 151153Z 17004KT 18/17 A3008 RMK A01 T01840173  RH  094%=      5-min Rain = 0
KMC1 151154Z 17003KT 18/17 A3008 RMK A01 T01840174  RH  094%=      5-min Rain = 0
KMC1 151155Z 17003KT 18/17 A3008 RMK A01 T01840174  RH  094%=      5-min Rain = 0
KMC1 151156Z 18004KT 18/18 A3008 RMK A01 T01840175  RH  094%=      5-min Rain = 0
KMC1 151157Z 18003KT 19/18 A3008 RMK A01 T01850176  RH  094%=      5-min Rain = 0
KMC1 151158Z 19003KT 19/18 A3008 RMK A01 T01850176  RH  094%=      5-min Rain = 0
KMC1 151159Z 18003KT 19/18 A3008 RMK A01 T01850176  RH  094%=      5-min Rain = 0
KMC1 151200Z 18003KT 19/18 A3009 RMK A01 T01860177  RH  094%=      5-min Rain = 0
KMC1 151201Z 19002KT 19/18 A3009 RMK A01 T01860177  RH  094%=      5-min Rain = 0
KMC1 151202Z 19002KT 19/18 A3009 RMK A01 T01860176  RH  094%=      5-min Rain = 0
KMC1 151203Z 20001KT 19/18 A3009 RMK A01 T01860176  RH  094%=      5-min Rain = 0
KMC1 151204Z 21002KT 19/18 A3009 RMK A01 T01870176  RH  094%=      5-min Rain = 0
KMC1 151205Z 22001KT 19/18 A3009 RMK A01 T01870176  RH  093%=      5-min Rain = 0
KMC1 151206Z 24001KT 19/18 A3009 RMK A01 T01870175  RH  093%=      5-min Rain = 0
KMC1 151207Z 25001KT 19/18 A3009 RMK A01 T01870175  RH  093%=      5-min Rain = 0
KMC1 151208Z 28001KT 19/18 A3009 RMK A01 T01870175  RH  093%=      5-min Rain = 0
KMC1 151209Z 30001KT 19/17 A3009 RMK A01 T01870174  RH  092%=      5-min Rain = 0
KMC1 151210Z 30001KT 19/17 A3009 RMK A01 T01860174  RH  092%=      5-min Rain = 0
KMC1 151211Z 29001KT 19/17 A3009 RMK A01 T01860173  RH  092%=      5-min Rain = 0
KMC1 151212Z 29001KT 19/17 A3009 RMK A01 T01860173  RH  092%=      5-min Rain = 0
KMC1 151213Z 26001KT 19/17 A3009 RMK A01 T01860172  RH  092%=      5-min Rain = 0
KMC1 151214Z 23001KT 19/17 A3009 RMK A01 T01850172  RH  092%=      5-min Rain = 0
KMC1 151215Z 22001KT 19/17 A3009 RMK A01 T01850172  RH  092%=      5-min Rain = 0
KMC1 151216Z 21001KT 19/17 A3009 RMK A01 T01850171  RH  092%=      5-min Rain = 0
KMC1 151217Z 22002KT 18/17 A3009 RMK A01 T01840171  RH  092%=      5-min Rain = 0
KMC1 151218Z 21001KT 18/17 A301 RMK A01 T01840171  RH  092%=      5-min Rain = 0
KMC1 151219Z 20001KT 18/17 A301 RMK A01 T01830171  RH  092%=      5-min Rain = 0
KMC1 151220Z 20001KT 18/17 A301 RMK A01 T01830171  RH  092%=      5-min Rain = 0
KMC1 151221Z 20001KT 18/17 A301 RMK A01 T01830170  RH  092%=      5-min Rain = 0
KMC1 151222Z 20001KT 18/17 A301 RMK A01 T01830170  RH  092%=      5-min Rain = 0
KMC1 151223Z 19001KT 18/17 A301 RMK A01 T01830170  RH  092%=      5-min Rain = 0
KMC1 151224Z 18002KT 18/17 A301 RMK A01 T01830170  RH  092%=      5-min Rain = 0
KMC1 151225Z 18003KT 18/17 A301 RMK A01 T01820170  RH  093%=      5-min Rain = 0
KMC1 151226Z 18003KT 18/17 A301 RMK A01 T01830171  RH  093%=      5-min Rain = 0
KMC1 151227Z 18003KT 18/17 A301 RMK A01 T01830172  RH  093%=      5-min Rain = 0
KMC1 151228Z 18003KT 18/17 A301 RMK A01 T01830173  RH  093%=      5-min Rain = 0
KMC1 151229Z 18003KT 18/17 A301 RMK A01 T01830172  RH  093%=      5-min Rain = 0
KMC1 151230Z 18003KT 18/17 A301 RMK A01 T01840173  RH  094%=      5-min Rain = 0
KMC1 151231Z 18002KT 18/17 A301 RMK A01 T01840173  RH  094%=      5-min Rain = 0
KMC1 151232Z 18003KT 18/17 A301 RMK A01 T01840173  RH  093%=      5-min Rain = 0
KMC1 151233Z 19002KT 18/17 A301 RMK A01 T01840173  RH  093%=      5-min Rain = 0
KMC1 151234Z 19002KT 18/17 A301 RMK A01 T01840173  RH  093%=      5-min Rain = 0
KMC1 151235Z 20002KT 19/17 A301 RMK A01 T01850173  RH  093%=      5-min Rain = 0
KMC1 151236Z 20002KT 19/17 A301 RMK A01 T01850173  RH  093%=      5-min Rain = 0
KMC1 151237Z 20002KT 19/17 A3011 RMK A01 T01850173  RH  093%=      5-min Rain = 0
KMC1 151238Z 19001KT 19/17 A3011 RMK A01 T01860174  RH  093%=      5-min Rain = 0
KMC1 151239Z 16001KT 19/17 A3011 RMK A01 T01860174  RH  093%=      5-min Rain = 0
KMC1 151240Z 15001KT 19/17 A3011 RMK A01 T01860174  RH  093%=      5-min Rain = 0
KMC1 151241Z 14000KT 19/18 A3011 RMK A01 T01870175  RH  093%=      5-min Rain = 0
KMC1 151242Z 18000KT 19/18 A3011 RMK A01 T01870175  RH  093%=      5-min Rain = 0
KMC1 151243Z 18001KT 19/18 A3011 RMK A01 T01880176  RH  093%=      5-min Rain = 0
KMC1 151244Z 18001KT 19/18 A301 RMK A01 T01880176  RH  093%=      5-min Rain = 0
KMC1 151245Z 16001KT 19/18 A301 RMK A01 T01890176  RH  092%=      5-min Rain = 0
KMC1 151246Z 14000KT 19/18 A301 RMK A01 T01900176  RH  092%=      5-min Rain = 0
KMC1 151247Z 15001KT 19/18 A301 RMK A01 T01900176  RH  092%=      5-min Rain = 0
KMC1 151248Z 17001KT 19/18 A301 RMK A01 T01900176  RH  092%=      5-min Rain = 0
KMC1 151249Z 17001KT 19/18 A3011 RMK A01 T01910177  RH  092%=      5-min Rain = 0
KMC1 151250Z 16000KT 19/18 A3011 RMK A01 T01920177  RH  091%=      5-min Rain = 0
KMC1 151251Z 00000KT 19/18 A3011 RMK A01 T01920177  RH  091%=      5-min Rain = 0
KMC1 151252Z 00000KT 19/18 A3011 RMK A01 T01930177  RH  091%=      5-min Rain = 0
KMC1 151253Z 00000KT 19/18 A3011 RMK A01 T01930178  RH  091%=      5-min Rain = 0
KMC1 151254Z 00000KT 19/18 A3011 RMK A01 T01940178  RH  090%=      5-min Rain = 0
KMC1 151255Z 18000KT 20/18 A3011 RMK A01 T01950178  RH  090%=      5-min Rain = 0
KMC1 151256Z 18000KT 20/18 A3011 RMK A01 T01960179  RH  090%=      5-min Rain = 0
KMC1 151257Z 00000KT 20/18 A3011 RMK A01 T01960179  RH  090%=      5-min Rain = 0
KMC1 151258Z 00000KT 20/18 A3011 RMK A01 T01970179  RH  090%=      5-min Rain = 0
KMC1 151259Z 31000KT 20/18 A3011 RMK A01 T01980178  RH  088%=      5-min Rain = 0
KMC1 151300Z 00001KT 20/18 A3011 RMK A01 T01980176  RH  087%=      5-min Rain = 0
KMC1 151301Z 01001KT 20/18 A3011 RMK A01 T01990177  RH  087%=      5-min Rain = 0
KMC1 151302Z 03000KT 20/18 A3011 RMK A01 T01990178  RH  087%=      5-min Rain = 0
KMC1 151303Z 03000KT 20/18 A3011 RMK A01 T02000178  RH  087%=      5-min Rain = 0
KMC1 151304Z 00000KT 20/18 A3011 RMK A01 T02010179  RH  087%=      5-min Rain = 0
KMC1 151305Z 20000KT 20/18 A3011 RMK A01 T02020179  RH  087%=      5-min Rain = 0
KMC1 151306Z 00000KT 20/18 A3011 RMK A01 T02020179  RH  086%=      5-min Rain = 0
KMC1 151307Z 00000KT 20/18 A3011 RMK A01 T02030179  RH  086%=      5-min Rain = 0
KMC1 151308Z 00000KT 20/18 A3011 RMK A01 T02040179  RH  086%=      5-min Rain = 0
KMC1 151309Z 00000KT 20/18 A3011 RMK A01 T02040180  RH  086%=      5-min Rain = 0
KMC1 151310Z 00000KT 21/18 A3011 RMK A01 T02050180  RH  086%=      5-min Rain = 0
KMC1 151311Z 00000KT 21/18 A3011 RMK A01 T02060181  RH  085%=      5-min Rain = 0
KMC1 151312Z 11000KT 21/18 A3011 RMK A01 T02070181  RH  085%=      5-min Rain = 0
KMC1 151313Z 06001KT 21/18 A3011 RMK A01 T02070182  RH  085%=      5-min Rain = 0
KMC1 151314Z 04000KT 21/18 A3011 RMK A01 T02080183  RH  085%=      5-min Rain = 0
KMC1 151315Z 03001KT 21/19 A3011 RMK A01 T02100185  RH  085%=      5-min Rain = 0
KMC1 151316Z 02000KT 21/19 A3011 RMK A01 T02110186  RH  085%=      5-min Rain = 0
KMC1 151317Z 35000KT 21/19 A3011 RMK A01 T02130186  RH  085%=      5-min Rain = 0
KMC1 151318Z 00000KT 21/19 A3011 RMK A01 T02140185  RH  084%=      5-min Rain = 0
KMC1 151319Z 31001KT 22/19 A3011 RMK A01 T02150185  RH  083%=      5-min Rain = 0
KMC1 151320Z 31001KT 22/19 A3011 RMK A01 T02160185  RH  082%=      5-min Rain = 0
KMC1 151321Z 31001KT 22/18 A3011 RMK A01 T02170184  RH  081%=      5-min Rain = 0
KMC1 151322Z 30001KT 22/18 A3012 RMK A01 T02180184  RH  081%=      5-min Rain = 0
KMC1 151323Z 30001KT 22/18 A3012 RMK A01 T02190184  RH  081%=      5-min Rain = 0
KMC1 151324Z 31000KT 22/18 A3012 RMK A01 T02200184  RH  080%=      5-min Rain = 0
KMC1 151325Z 35001KT 22/18 A3012 RMK A01 T02200184  RH  080%=      5-min Rain = 0
KMC1 151326Z 33001KT 22/19 A3012 RMK A01 T02220185  RH  079%=      5-min Rain = 0
KMC1 151327Z 33001KT 22/19 A3012 RMK A01 T02230185  RH  079%=      5-min Rain = 0
KMC1 151328Z 34001KT 23/19 A3012 RMK A01 T02250186  RH  079%=      5-min Rain = 0
KMC1 151329Z 32001KT 23/19 A3012 RMK A01 T02260186  RH  078%=      5-min Rain = 0
KMC1 151330Z 30001KT 23/19 A3012 RMK A01 T02270186  RH  077%=      5-min Rain = 0
KMC1 151331Z 29001KT 23/19 A3012 RMK A01 T02280185  RH  077%=      5-min Rain = 0
KMC1 151332Z 28002KT 23/19 A3012 RMK A01 T02280185  RH  077%=      5-min Rain = 0
KMC1 151333Z 28002KT 23/19 A3012 RMK A01 T02290186  RH  077%=      5-min Rain = 0
KMC1 151334Z 29002KT 23/18 A3012 RMK A01 T02280184  RH  076%=      5-min Rain = 0
KMC1 151335Z 27001KT 23/19 A3012 RMK A01 T02290185  RH  076%=      5-min Rain = 0
KMC1 151336Z 28000KT 23/19 A3012 RMK A01 T02290186  RH  077%=      5-min Rain = 0
KMC1 151337Z 33000KT 23/19 A3012 RMK A01 T02300186  RH  076%=      5-min Rain = 0
KMC1 151338Z 34000KT 23/19 A3011 RMK A01 T02310186  RH  076%=      5-min Rain = 0
KMC1 151339Z 00000KT 23/19 A3011 RMK A01 T02320187  RH  076%=      5-min Rain = 0
KMC1 151340Z 33000KT 23/19 A3011 RMK A01 T02330187  RH  075%=      5-min Rain = 0
KMC1 151341Z 32000KT 24/19 A3011 RMK A01 T02360188  RH  075%=      5-min Rain = 0
KMC1 151342Z 00000KT 24/19 A3011 RMK A01 T02380188  RH  073%=      5-min Rain = 0
KMC1 151343Z 00000KT 24/19 A3012 RMK A01 T02410189  RH  073%=      5-min Rain = 0
KMC1 151344Z 26000KT 24/19 A3012 RMK A01 T02420188  RH  072%=      5-min Rain = 0
KMC1 151345Z 27001KT 24/19 A3012 RMK A01 T02430188  RH  072%=      5-min Rain = 0
KMC1 151346Z 28001KT 24/19 A3012 RMK A01 T02430188  RH  072%=      5-min Rain = 0
KMC1 151347Z 27000KT 24/19 A3012 RMK A01 T02420189  RH  072%=      5-min Rain = 0
KMC1 151348Z 36000KT 24/19 A3012 RMK A01 T02420189  RH  072%=      5-min Rain = 0
KMC1 151349Z 30001KT 24/19 A3012 RMK A01 T02420188  RH  072%=      5-min Rain = 0
KMC1 151350Z 32001KT 24/19 A3011 RMK A01 T02430189  RH  072%=      5-min Rain = 0
KMC1 151351Z 35001KT 24/19 A3011 RMK A01 T02430189  RH  072%=      5-min Rain = 0
KMC1 151352Z 35001KT 24/19 A3011 RMK A01 T02440189  RH  072%=      5-min Rain = 0
KMC1 151353Z 33001KT 25/19 A3011 RMK A01 T02450190  RH  072%=      5-min Rain = 0
KMC1 151354Z 33001KT 25/19 A3011 RMK A01 T02460189  RH  071%=      5-min Rain = 0
KMC1 151355Z 31001KT 25/19 A3011 RMK A01 T02470190  RH  071%=      5-min Rain = 0
KMC1 151356Z 31001KT 25/19 A3011 RMK A01 T02480191  RH  070%=      5-min Rain = 0
KMC1 151357Z 32001KT 25/19 A3011 RMK A01 T02480190  RH  070%=      5-min Rain = 0
KMC1 151358Z 31001KT 25/19 A3011 RMK A01 T02480191  RH  070%=      5-min Rain = 0
KMC1 151359Z 31000KT 25/19 A3011 RMK A01 T02490191  RH  070%=      5-min Rain = 0
KMC1 151400Z 00000KT 25/19 A3011 RMK A01 T02500192  RH  070%=      5-min Rain = 0
KMC1 151401Z 00000KT 25/19 A3011 RMK A01 T02510192  RH  070%=      5-min Rain = 0
KMC1 151402Z 27000KT 25/19 A3011 RMK A01 T02520192  RH  069%=      5-min Rain = 0
KMC1 151403Z 28002KT 25/19 A3011 RMK A01 T02530192  RH  069%=      5-min Rain = 0
KMC1 151404Z 28002KT 25/19 A3011 RMK A01 T02530193  RH  069%=      5-min Rain = 0
KMC1 151405Z 28002KT 25/19 A3011 RMK A01 T02530193  RH  069%=      5-min Rain = 0
KMC1 151406Z 26002KT 25/19 A3011 RMK A01 T02530194  RH  070%=      5-min Rain = 0
KMC1 151407Z 28002KT 25/19 A3011 RMK A01 T02540193  RH  069%=      5-min Rain = 0
KMC1 151408Z 29002KT 25/19 A3011 RMK A01 T02540194  RH  069%=      5-min Rain = 0
KMC1 151409Z 29003KT 26/19 A3012 RMK A01 T02550193  RH  069%=      5-min Rain = 0
KMC1 151410Z 28002KT 26/19 A3012 RMK A01 T02550193  RH  069%=      5-min Rain = 0
KMC1 151411Z 28002KT 26/19 A3012 RMK A01 T02550194  RH  069%=      5-min Rain = 0
KMC1 151412Z 30002KT 26/19 A3012 RMK A01 T02560193  RH  068%=      5-min Rain = 0
KMC1 151413Z 29001KT 26/19 A3012 RMK A01 T02560194  RH  068%=      5-min Rain = 0
KMC1 151414Z 28002KT 26/19 A3012 RMK A01 T02550193  RH  068%=      5-min Rain = 0
KMC1 151415Z 29002KT 26/19 A3012 RMK A01 T02550194  RH  069%=      5-min Rain = 0
KMC1 151416Z 30001KT 26/19 A3012 RMK A01 T02560194  RH  069%=      5-min Rain = 0
KMC1 151417Z 28002KT 26/19 A3012 RMK A01 T02560194  RH  068%=      5-min Rain = 0
KMC1 151418Z 29003KT 26/19 A3012 RMK A01 T02560194  RH  069%=      5-min Rain = 0
KMC1 151419Z 26002KT 26/20 A3011 RMK A01 T02560195  RH  069%=      5-min Rain = 0
KMC1 151420Z 28001KT 26/19 A3012 RMK A01 T02560194  RH  069%=      5-min Rain = 0
KMC1 151421Z 29002KT 26/20 A3012 RMK A01 T02560195  RH  069%=      5-min Rain = 0
KMC1 151422Z 28002KT 26/20 A3012 RMK A01 T02570195  RH  069%=      5-min Rain = 0
KMC1 151423Z 29002KT 26/20 A3012 RMK A01 T02570196  RH  069%=      5-min Rain = 0
KMC1 151424Z 29002KT 26/20 A3012 RMK A01 T02590196  RH  068%=      5-min Rain = 0
KMC1 151425Z 30002KT 26/20 A3012 RMK A01 T02610197  RH  068%=      5-min Rain = 0
KMC1 151426Z 32002KT 26/20 A3011 RMK A01 T02610196  RH  068%=      5-min Rain = 0
KMC1 151427Z 28001KT 26/20 A3011 RMK A01 T02610197  RH  068%=      5-min Rain = 0
KMC1 151428Z 28002KT 26/20 A3011 RMK A01 T02620197  RH  067%=      5-min Rain = 0
KMC1 151429Z 31001KT 26/20 A3011 RMK A01 T02630197  RH  067%=      5-min Rain = 0
KMC1 151430Z 30001KT 26/20 A3012 RMK A01 T02640198  RH  067%=      5-min Rain = 0
KMC1 151431Z 31001KT 27/20 A3011 RMK A01 T02650198  RH  067%=      5-min Rain = 0
KMC1 151432Z 31001KT 27/20 A3012 RMK A01 T02680199  RH  066%=      5-min Rain = 0
KMC1 151433Z 31001KT 27/20 A3012 RMK A01 T02700199  RH  065%=      5-min Rain = 0
KMC1 151434Z 30002KT 27/20 A3012 RMK A01 T02710200  RH  065%=      5-min Rain = 0
KMC1 151435Z 29002KT 27/20 A3012 RMK A01 T02730200  RH  064%=      5-min Rain = 0
KMC1 151436Z 27002KT 27/20 A3012 RMK A01 T02730199  RH  064%=      5-min Rain = 0
KMC1 151437Z 28001KT 27/20 A3012 RMK A01 T02730200  RH  064%=      5-min Rain = 0
KMC1 151438Z 32000KT 27/20 A3012 RMK A01 T02730200  RH  064%=      5-min Rain = 0
KMC1 151439Z 31002KT 28/20 A3012 RMK A01 T02750200  RH  064%=      5-min Rain = 0
KMC1 151440Z 31002KT 28/20 A3012 RMK A01 T02760200  RH  063%=      5-min Rain = 0
KMC1 151441Z 29001KT 28/20 A3012 RMK A01 T02770202  RH  064%=      5-min Rain = 0
KMC1 151442Z 30001KT 28/20 A3012 RMK A01 T02780203  RH  064%=      5-min Rain = 0
KMC1 151443Z 28000KT 28/20 A3012 RMK A01 T02790202  RH  063%=      5-min Rain = 0
KMC1 151444Z 29002KT 28/20 A3012 RMK A01 T02800202  RH  062%=      5-min Rain = 0
KMC1 151445Z 26001KT 28/20 A3012 RMK A01 T02810202  RH  062%=      5-min Rain = 0
KMC1 151446Z 26002KT 28/20 A3012 RMK A01 T02820201  RH  062%=      5-min Rain = 0
KMC1 151447Z 28001KT 28/20 A3012 RMK A01 T02810200  RH  061%=      5-min Rain = 0
KMC1 151448Z 29002KT 28/20 A3012 RMK A01 T02820201  RH  061%=      5-min Rain = 0
KMC1 151449Z 30002KT 28/20 A3012 RMK A01 T02830202  RH  061%=      5-min Rain = 0
KMC1 151450Z 30002KT 29/20 A3012 RMK A01 T02850202  RH  061%=      5-min Rain = 0
KMC1 151451Z 33003KT 29/20 A3012 RMK A01 T02860203  RH  061%=      5-min Rain = 0
KMC1 151452Z 00002KT 29/20 A3012 RMK A01 T02860203  RH  061%=      5-min Rain = 0
KMC1 151453Z 27000KT 29/20 A3012 RMK A01 T02860203  RH  061%=      5-min Rain = 0
KMC1 151454Z 31000KT 29/20 A3012 RMK A01 T02880204  RH  061%=      5-min Rain = 0
KMC1 151455Z 32002KT 29/20 A3012 RMK A01 T02900203  RH  059%=      5-min Rain = 0
KMC1 151456Z 29002KT 29/20 A3012 RMK A01 T02910203  RH  059%=      5-min Rain = 0
KMC1 151457Z 25002KT 29/20 A3012 RMK A01 T02910203  RH  059%=      5-min Rain = 0
KMC1 151458Z 28001KT 29/20 A3012 RMK A01 T02910203  RH  059%=      5-min Rain = 0
KMC1 151459Z 24001KT 29/20 A3012 RMK A01 T02900202  RH  059%=      5-min Rain = 0
KMC1 151500Z 23000KT 29/20 A3012 RMK A01 T02900203  RH  059%=      5-min Rain = 0
KMC1 151501Z 26001KT 29/20 A3012 RMK A01 T02910203  RH  059%=      5-min Rain = 0
KMC1 151502Z 28000KT 29/20 A3012 RMK A01 T02930203  RH  059%=      5-min Rain = 0
KMC1 151503Z 29000KT 30/20 A3012 RMK A01 T02950204  RH  058%=      5-min Rain = 0
KMC1 151504Z 06000KT 30/20 A3012 RMK A01 T02980201  RH  056%=      5-min Rain = 0
KMC1 151505Z 12003KT 30/20 A3012 RMK A01 T03020198  RH  054%=      5-min Rain = 0
KMC1 151506Z 11003KT 30/20 A3012 RMK A01 T03040196  RH  052%=      5-min Rain = 0
KMC1 151507Z 11002KT 31/20 A3012 RMK A01 T03060197  RH  052%=      5-min Rain = 0
KMC1 151508Z 11001KT 31/20 A3012 RMK A01 T03080197  RH  052%=      5-min Rain = 0
KMC1 151509Z 14003KT 31/20 A3012 RMK A01 T03090198  RH  051%=      5-min Rain = 0
KMC1 151510Z 14003KT 31/20 A3012 RMK A01 T03110197  RH  051%=      5-min Rain = 0
KMC1 151511Z 15002KT 31/20 A3012 RMK A01 T03100198  RH  051%=      5-min Rain = 0
KMC1 151512Z 17003KT 31/20 A3012 RMK A01 T03100197  RH  051%=      5-min Rain = 0
KMC1 151513Z 19002KT 31/20 A3012 RMK A01 T03090197  RH  051%=      5-min Rain = 0
KMC1 151514Z 18005KT 31/20 A3012 RMK A01 T03080197  RH  052%=      5-min Rain = 0
KMC1 151515Z 18004KT 31/20 A3012 RMK A01 T03080197  RH  051%=      5-min Rain = 0
KMC1 151516Z 20004KT 31/20 A3012 RMK A01 T03090198  RH  052%=      5-min Rain = 0
KMC1 151517Z 21005KT 31/20 A3012 RMK A01 T03090197  RH  051%=      5-min Rain = 0
KMC1 151518Z 18004KT 31/20 A3012 RMK A01 T03090197  RH  051%=      5-min Rain = 0
KMC1 151519Z 18004KT 31/20 A3012 RMK A01 T03080196  RH  052%=      5-min Rain = 0
KMC1 151520Z 17004KT 31/20 A3012 RMK A01 T03070197  RH  052%=      5-min Rain = 0
KMC1 151521Z 19003KT 31/20 A3012 RMK A01 T03080195  RH  051%=      5-min Rain = 0
KMC1 151522Z 21003KT 31/20 A3012 RMK A01 T03070196  RH  052%=      5-min Rain = 0
KMC1 151523Z 18003KT 31/20 A3012 RMK A01 T03070197  RH  052%=      5-min Rain = 0
KMC1 151524Z 10002KT 31/20 A3012 RMK A01 T03090197  RH  051%=      5-min Rain = 0
KMC1 151525Z 22001KT 31/20 A3012 RMK A01 T03110197  RH  051%=      5-min Rain = 0
KMC1 151526Z 24002KT 31/20 A3012 RMK A01 T03120197  RH  050%=      5-min Rain = 0
KMC1 151527Z 20001KT 31/20 A3012 RMK A01 T03120197  RH  051%=      5-min Rain = 0
KMC1 151528Z 15001KT 31/20 A3012 RMK A01 T03110198  RH  051%=      5-min Rain = 0
KMC1 151529Z 20002KT 31/20 A3012 RMK A01 T03120197  RH  051%=      5-min Rain = 0
KMC1 151530Z 17002KT 31/20 A3012 RMK A01 T03120198  RH  051%=      5-min Rain = 0
KMC1 151531Z 09004KT 31/20 A3012 RMK A01 T03120197  RH  050%=      5-min Rain = 0
KMC1 151532Z 08002KT 31/20 A3012 RMK A01 T03130197  RH  050%=      5-min Rain = 0
KMC1 151533Z 15003KT 31/20 A3012 RMK A01 T03140196  RH  050%=      5-min Rain = 0
KMC1 151534Z 14004KT 32/20 A3012 RMK A01 T03160197  RH  049%=      5-min Rain = 0
KMC1 151535Z 14003KT 32/20 A3013 RMK A01 T03170195  RH  048%=      5-min Rain = 0
KMC1 151536Z 09001KT 32/19 A3013 RMK A01 T03150194  RH  049%=      5-min Rain = 0
KMC1 151537Z 13002KT 32/20 A3013 RMK A01 T03150195  RH  049%=      5-min Rain = 0
KMC1 151538Z 10004KT 32/20 A3013 RMK A01 T03160196  RH  049%=      5-min Rain = 0
KMC1 151539Z 10004KT 32/20 A3013 RMK A01 T03170197  RH  049%=      5-min Rain = 0
KMC1 151540Z 11004KT 32/20 A3013 RMK A01 T03180198  RH  049%=      5-min Rain = 0
KMC1 151541Z 13003KT 32/20 A3013 RMK A01 T03190197  RH  049%=      5-min Rain = 0
KMC1 151542Z 10002KT 32/20 A3013 RMK A01 T03210200  RH  049%=      5-min Rain = 0
KMC1 151543Z 13003KT 32/20 A3013 RMK A01 T03220197  RH  048%=      5-min Rain = 0
KMC1 151544Z 15001KT 32/20 A3013 RMK A01 T03210195  RH  047%=      5-min Rain = 0
KMC1 151545Z 17001KT 32/20 A3013 RMK A01 T03190195  RH  048%=      5-min Rain = 0
KMC1 151546Z 17003KT 32/20 A3013 RMK A01 T03190196  RH  048%=      5-min Rain = 0
KMC1 151547Z 17002KT 32/20 A3013 RMK A01 T03200195  RH  048%=      5-min Rain = 0
KMC1 151548Z 14002KT 32/20 A3013 RMK A01 T03180195  RH  048%=      5-min Rain = 0
KMC1 151549Z 20002KT 32/20 A3013 RMK A01 T03170195  RH  048%=      5-min Rain = 0
KMC1 151550Z 18005KT 32/19 A3013 RMK A01 T03180194  RH  048%=      5-min Rain = 0
KMC1 151551Z 18004KT 32/19 A3013 RMK A01 T03190193  RH  048%=      5-min Rain = 0
KMC1 151552Z 20003KT 32/19 A3013 RMK A01 T03180194  RH  048%=      5-min Rain = 0
KMC1 151553Z 20003KT 32/19 A3013 RMK A01 T03180193  RH  048%=      5-min Rain = 0
KMC1 151554Z 26001KT 32/19 A3013 RMK A01 T03160191  RH  048%=      5-min Rain = 0
KMC1 151555Z 15002KT 32/19 A3013 RMK A01 T03150193  RH  048%=      5-min Rain = 0
KMC1 151556Z 13002KT 32/19 A3013 RMK A01 T03150193  RH  048%=      5-min Rain = 0
KMC1 151557Z 10001KT 32/19 A3013 RMK A01 T03170194  RH  048%=      5-min Rain = 0
KMC1 151558Z 16004KT 32/20 A3013 RMK A01 T03180195  RH  048%=      5-min Rain = 0
KMC1 151559Z 18003KT 32/20 A3013 RMK A01 T03190195  RH  048%=      5-min Rain = 0
KMC1 151600Z 18003KT 32/19 A3013 RMK A01 T03190194  RH  048%=      5-min Rain = 0
KMC1 151601Z 17003KT 32/19 A3013 RMK A01 T03170194  RH  048%=      5-min Rain = 0
KMC1 151602Z 12001KT 32/19 A3013 RMK A01 T03160192  RH  048%=      5-min Rain = 0
KMC1 151603Z 33001KT 32/19 A3013 RMK A01 T03160192  RH  048%=      5-min Rain = 0
KMC1 151604Z 16002KT 32/19 A3013 RMK A01 T03180193  RH  048%=      5-min Rain = 0
KMC1 151605Z 19005KT 32/19 A3013 RMK A01 T03210193  RH  047%=      5-min Rain = 0
KMC1 151606Z 17005KT 32/19 A3013 RMK A01 T03230192  RH  046%=      5-min Rain = 0
KMC1 151607Z 16005KT 32/19 A3013 RMK A01 T03240191  RH  045%=      5-min Rain = 0
KMC1 151608Z 18004KT 32/19 A3013 RMK A01 T03230192  RH  046%=      5-min Rain = 0
KMC1 151609Z 22004KT 32/19 A3013 RMK A01 T03220189  RH  045%=      5-min Rain = 0
KMC1 151610Z 23004KT 32/19 A3013 RMK A01 T03210189  RH  046%=      5-min Rain = 0
KMC1 151611Z 27005KT 32/19 A3013 RMK A01 T03200190  RH  046%=      5-min Rain = 0
KMC1 151612Z 23004KT 32/19 A3013 RMK A01 T03210191  RH  046%=      5-min Rain = 0
KMC1 151613Z 17003KT 32/19 A3013 RMK A01 T03220192  RH  046%=      5-min Rain = 0
KMC1 151614Z 16002KT 32/19 A3013 RMK A01 T03230193  RH  046%=      5-min Rain = 0
KMC1 151615Z 20001KT 32/20 A3013 RMK A01 T03220195  RH  047%=      5-min Rain = 0
KMC1 151616Z 29000KT 32/20 A3013 RMK A01 T03210195  RH  047%=      5-min Rain = 0
KMC1 151617Z 15002KT 32/20 A3013 RMK A01 T03230195  RH  047%=      5-min Rain = 0
KMC1 151618Z 10003KT 33/20 A3013 RMK A01 T03250195  RH  046%=      5-min Rain = 0
KMC1 151619Z 12002KT 33/20 A3013 RMK A01 T03280196  RH  046%=      5-min Rain = 0
KMC1 151620Z 12004KT 33/20 A3013 RMK A01 T03310195  RH  045%=      5-min Rain = 0
KMC1 151621Z 12005KT 33/20 A3013 RMK A01 T03340195  RH  044%=      5-min Rain = 0
KMC1 151622Z 13003KT 33/19 A3013 RMK A01 T03310193  RH  044%=      5-min Rain = 0
KMC1 151623Z 11003KT 33/19 A3013 RMK A01 T03290194  RH  045%=      5-min Rain = 0
KMC1 151624Z 11000KT 33/19 A3013 RMK A01 T03290193  RH  045%=      5-min Rain = 0
KMC1 151625Z 11001KT 33/19 A3013 RMK A01 T03280193  RH  045%=      5-min Rain = 0
KMC1 151626Z 15001KT 33/19 A3013 RMK A01 T03290193  RH  045%=      5-min Rain = 0
KMC1 151627Z 20004KT 33/19 A3013 RMK A01 T03280193  RH  045%=      5-min Rain = 0
KMC1 151628Z 19005KT 33/19 A3013 RMK A01 T03280194  RH  045%=      5-min Rain = 0
KMC1 151629Z 17004KT 33/19 A3013 RMK A01 T03270194  RH  045%=      5-min Rain = 0
KMC1 151630Z 17007KT 33/20 A3013 RMK A01 T03270195  RH  046%=      5-min Rain = 0
KMC1 151631Z 17006KT 33/19 A3013 RMK A01 T03280194  RH  045%=      5-min Rain = 0
KMC1 151632Z 17004KT 33/19 A3013 RMK A01 T03270194  RH  046%=      5-min Rain = 0
KMC1 151633Z 14002KT 33/19 A3013 RMK A01 T03270193  RH  045%=      5-min Rain = 0
KMC1 151634Z 18002KT 33/19 A3013 RMK A01 T03280193  RH  045%=      5-min Rain = 0
KMC1 151635Z 20001KT 33/19 A3013 RMK A01 T03300194  RH  045%=      5-min Rain = 0
KMC1 151636Z 12002KT 33/19 A3012 RMK A01 T03300192  RH  044%=      5-min Rain = 0
KMC1 151637Z 09001KT 33/20 A3012 RMK A01 T03310195  RH  045%=      5-min Rain = 0
KMC1 151638Z 05002KT 34/20 A3012 RMK A01 T03350196  RH  044%=      5-min Rain = 0
KMC1 151639Z 04004KT 34/20 A3012 RMK A01 T03360195  RH  043%=      5-min Rain = 0
KMC1 151640Z 03003KT 33/20 A3012 RMK A01 T03340195  RH  044%=      5-min Rain = 0
KMC1 151641Z 24001KT 33/19 A3012 RMK A01 T03340194  RH  044%=      5-min Rain = 0
KMC1 151642Z 17004KT 34/19 A3012 RMK A01 T03370194  RH  043%=      5-min Rain = 0
KMC1 151643Z 16004KT 34/19 A3012 RMK A01 T03360194  RH  043%=      5-min Rain = 0
KMC1 151644Z 15002KT 33/19 A3012 RMK A01 T03340193  RH  043%=      5-min Rain = 0
KMC1 151645Z 20002KT 33/19 A3012 RMK A01 T03330193  RH  044%=      5-min Rain = 0
KMC1 151646Z 29001KT 33/19 A3012 RMK A01 T03310192  RH  044%=      5-min Rain = 0
KMC1 151647Z 02001KT 33/19 A3012 RMK A01 T03280192  RH  044%=      5-min Rain = 0
KMC1 151648Z 34001KT 33/19 A3012 RMK A01 T03280193  RH  045%=      5-min Rain = 0
KMC1 151649Z 29002KT 33/19 A3012 RMK A01 T03310194  RH  044%=      5-min Rain = 0
KMC1 151650Z 24002KT 33/19 A3012 RMK A01 T03340193  RH  044%=      5-min Rain = 0
KMC1 151651Z 19001KT 34/19 A3012 RMK A01 T03350194  RH  043%=      5-min Rain = 0
KMC1 151652Z 14001KT 34/19 A3011 RMK A01 T03350194  RH  043%=      5-min Rain = 0
KMC1 151653Z 26002KT 34/19 A3011 RMK A01 T03360194  RH  043%=      5-min Rain = 0
KMC1 151654Z 05001KT 34/19 A3011 RMK A01 T03370193  RH  043%=      5-min Rain = 0
KMC1 151655Z 04001KT 34/19 A3011 RMK A01 T03380194  RH  043%=      5-min Rain = 0
KMC1 151656Z 01002KT 34/20 A3011 RMK A01 T03420195  RH  042%=      5-min Rain = 0
KMC1 151657Z 03001KT 34/19 A3011 RMK A01 T03430194  RH  041%=      5-min Rain = 0
KMC1 151658Z 12001KT 34/19 A3011 RMK A01 T03430194  RH  042%=      5-min Rain = 0
KMC1 151659Z 08001KT 34/19 A3011 RMK A01 T03420194  RH  042%=      5-min Rain = 0
KMC1 151700Z 18001KT 34/20 A3011 RMK A01 T03420195  RH  042%=      5-min Rain = 0
KMC1 151701Z 19004KT 34/19 A3011 RMK A01 T03430194  RH  042%=      5-min Rain = 0
KMC1 151702Z 24006KT 34/20 A3011 RMK A01 T03410195  RH  042%=      5-min Rain = 0
KMC1 151703Z 27006KT 34/20 A3011 RMK A01 T03390196  RH  043%=      5-min Rain = 0
KMC1 151704Z 23004KT 34/20 A3011 RMK A01 T03380196  RH  043%=      5-min Rain = 0
KMC1 151705Z 22004KT 34/20 A3011 RMK A01 T03380195  RH  043%=      5-min Rain = 0
KMC1 151706Z 21007KT 34/19 A3011 RMK A01 T03380193  RH  042%=      5-min Rain = 0
KMC1 151707Z 21007KT 33/19 A3011 RMK A01 T03330191  RH  043%=      5-min Rain = 0
KMC1 151708Z 20006KT 33/19 A3011 RMK A01 T03290190  RH  044%=      5-min Rain = 0
KMC1 151709Z 24005KT 33/19 A3011 RMK A01 T03250191  RH  045%=      5-min Rain = 0
KMC1 151710Z 25004KT 32/19 A3011 RMK A01 T03230191  RH  045%=      5-min Rain = 0
KMC1 151711Z 28005KT 32/19 A3011 RMK A01 T03230191  RH  046%=      5-min Rain = 0
KMC1 151712Z 28004KT 32/19 A3011 RMK A01 T03220190  RH  046%=      5-min Rain = 0
KMC1 151713Z 29003KT 32/19 A3011 RMK A01 T03210190  RH  046%=      5-min Rain = 0
KMC1 151714Z 31003KT 32/19 A3011 RMK A01 T03210191  RH  046%=      5-min Rain = 0
KMC1 151715Z 31002KT 32/19 A3011 RMK A01 T03240193  RH  046%=      5-min Rain = 0
KMC1 151716Z 32003KT 33/19 A3011 RMK A01 T03260191  RH  045%=      5-min Rain = 0
KMC1 151717Z 30005KT 33/19 A3011 RMK A01 T03260191  RH  045%=      5-min Rain = 0
KMC1 151718Z 31004KT 33/19 A3011 RMK A01 T03250191  RH  045%=      5-min Rain = 0
KMC1 151719Z 31004KT 33/19 A3011 RMK A01 T03250192  RH  045%=      5-min Rain = 0
KMC1 151720Z 33004KT 33/19 A3011 RMK A01 T03260192  RH  045%=      5-min Rain = 0
KMC1 151721Z 31005KT 33/19 A3011 RMK A01 T03270191  RH  045%=      5-min Rain = 0
KMC1 151722Z 31005KT 33/19 A3011 RMK A01 T03260191  RH  045%=      5-min Rain = 0
KMC1 151723Z 30006KT 33/19 A3011 RMK A01 T03250192  RH  045%=      5-min Rain = 0
KMC1 151724Z 30005KT 32/19 A301 RMK A01 T03240191  RH  045%=      5-min Rain = 0
KMC1 151725Z 28004KT 32/19 A301 RMK A01 T03230192  RH  046%=      5-min Rain = 0
KMC1 151726Z 28003KT 32/19 A301 RMK A01 T03220192  RH  046%=      5-min Rain = 0
KMC1 151727Z 31004KT 32/19 A301 RMK A01 T03230192  RH  046%=      5-min Rain = 0
KMC1 151728Z 30003KT 33/19 A301 RMK A01 T03260193  RH  045%=      5-min Rain = 0
KMC1 151729Z 30004KT 33/20 A301 RMK A01 T03310195  RH  045%=      5-min Rain = 0
KMC1 151730Z 30004KT 34/19 A301 RMK A01 T03370194  RH  043%=      5-min Rain = 0
KMC1 151731Z 35003KT 34/19 A301 RMK A01 T03390194  RH  043%=      5-min Rain = 0
KMC1 151732Z 33004KT 34/19 A301 RMK A01 T03420194  RH  042%=      5-min Rain = 0
KMC1 151733Z 33005KT 34/19 A301 RMK A01 T03430192  RH  041%=      5-min Rain = 0
KMC1 151734Z 31003KT 34/19 A301 RMK A01 T03390191  RH  042%=      5-min Rain = 0
KMC1 151735Z 31004KT 34/19 A301 RMK A01 T03380192  RH  042%=      5-min Rain = 0
KMC1 151736Z 31005KT 34/19 A301 RMK A01 T03400193  RH  042%=      5-min Rain = 0
KMC1 151737Z 31003KT 34/19 A301 RMK A01 T03400191  RH  042%=      5-min Rain = 0
KMC1 151738Z 28002KT 34/19 A301 RMK A01 T03380192  RH  042%=      5-min Rain = 0
KMC1 151739Z 29002KT 34/19 A301 RMK A01 T03360191  RH  042%=      5-min Rain = 0
KMC1 151740Z 28001KT 33/19 A301 RMK A01 T03340191  RH  043%=      5-min Rain = 0
KMC1 151741Z 33002KT 33/19 A301 RMK A01 T03340191  RH  043%=      5-min Rain = 0
KMC1 151742Z 34003KT 33/19 A301 RMK A01 T03330191  RH  043%=      5-min Rain = 0
KMC1 151743Z 34004KT 33/19 A301 RMK A01 T03330191  RH  043%=      5-min Rain = 0
KMC1 151744Z 01004KT 33/19 A301 RMK A01 T03310190  RH  043%=      5-min Rain = 0
KMC1 151745Z 02004KT 33/19 A301 RMK A01 T03290189  RH  044%=      5-min Rain = 0
KMC1 151746Z 35003KT 33/19 A301 RMK A01 T03280190  RH  044%=      5-min Rain = 0
KMC1 151747Z 34004KT 33/19 A301 RMK A01 T03280190  RH  044%=      5-min Rain = 0
KMC1 151748Z 35002KT 33/19 A301 RMK A01 T03300191  RH  044%=      5-min Rain = 0
KMC1 151749Z 03004KT 34/19 A301 RMK A01 T03350194  RH  044%=      5-min Rain = 0
KMC1 151750Z 08003KT 34/19 A301 RMK A01 T03390192  RH  042%=      5-min Rain = 0
KMC1 151751Z 08003KT 34/19 A301 RMK A01 T03410193  RH  042%=      5-min Rain = 0
KMC1 151752Z 10003KT 34/19 A301 RMK A01 T03420192  RH  041%=      5-min Rain = 0
KMC1 151753Z 09004KT 34/19 A3009 RMK A01 T03440192  RH  041%=      5-min Rain = 0
KMC1 151754Z 09002KT 34/19 A3009 RMK A01 T03430191  RH  041%=      5-min Rain = 0
KMC1 151755Z 03001KT 34/19 A3009 RMK A01 T03420191  RH  041%=      5-min Rain = 0
KMC1 151756Z 07002KT 34/19 A3009 RMK A01 T03420190  RH  041%=      5-min Rain = 0
KMC1 151757Z 11000KT 34/19 A3009 RMK A01 T03420190  RH  041%=      5-min Rain = 0
KMC1 151758Z 17001KT 34/19 A3009 RMK A01 T03440192  RH  041%=      5-min Rain = 0
KMC1 151759Z 12002KT 35/19 A3009 RMK A01 T03490193  RH  040%=      5-min Rain = 0
KMC1 151800Z 06004KT 35/19 A3009 RMK A01 T03540194  RH  039%=      5-min Rain = 0
KMC1 151801Z 06004KT 36/20 A3009 RMK A01 T03570195  RH  039%=      5-min Rain = 0
KMC1 151802Z 07004KT 36/19 A3009 RMK A01 T03590193  RH  038%=      5-min Rain = 0
KMC1 151803Z 06005KT 36/19 A3009 RMK A01 T03580194  RH  038%=      5-min Rain = 0
KMC1 151804Z 04004KT 36/19 A3009 RMK A01 T03570193  RH  038%=      5-min Rain = 0
KMC1 151805Z 34002KT 35/19 A3009 RMK A01 T03530190  RH  038%=      5-min Rain = 0
KMC1 151806Z 31002KT 35/19 A3009 RMK A01 T03510190  RH  039%=      5-min Rain = 0
KMC1 151807Z 30002KT 35/19 A3009 RMK A01 T03490190  RH  039%=      5-min Rain = 0
KMC1 151808Z 06003KT 35/19 A3009 RMK A01 T03510190  RH  039%=      5-min Rain = 0
KMC1 151809Z 08005KT 35/19 A3009 RMK A01 T03520192  RH  039%=      5-min Rain = 0
KMC1 151810Z 10005KT 35/19 A3009 RMK A01 T03540190  RH  038%=      5-min Rain = 0
KMC1 151811Z 05005KT 35/19 A3008 RMK A01 T03500190  RH  039%=      5-min Rain = 0
KMC1 151812Z 06003KT 35/19 A3009 RMK A01 T03490190  RH  039%=      5-min Rain = 0
KMC1 151813Z 07002KT 35/19 A3008 RMK A01 T03490189  RH  039%=      5-min Rain = 0
KMC1 151814Z 22000KT 35/19 A3008 RMK A01 T03500188  RH  039%=      5-min Rain = 0
KMC1 151815Z 31001KT 35/19 A3008 RMK A01 T03500189  RH  039%=      5-min Rain = 0
KMC1 151816Z 29002KT 35/19 A3008 RMK A01 T03510188  RH  038%=      5-min Rain = 0
KMC1 151817Z 03002KT 35/19 A3008 RMK A01 T03520188  RH  038%=      5-min Rain = 0
KMC1 151818Z 02003KT 35/19 A3008 RMK A01 T03520185  RH  038%=      5-min Rain = 0
KMC1 151819Z 07002KT 35/19 A3008 RMK A01 T03490185  RH  038%=      5-min Rain = 0
KMC1 151820Z 08003G8KT 35/19 A3008 RMK A01 T03480185  RH  038%=      5-min Rain = 0
KMC1 151821Z 09005KT 35/19 A3008 RMK A01 T03510187  RH  038%=      5-min Rain = 0
KMC1 151822Z 09002KT 35/19 A3008 RMK A01 T03510186  RH  038%=      5-min Rain = 0
KMC1 151823Z 06005KT 35/19 A3008 RMK A01 T03540189  RH  038%=      5-min Rain = 0
KMC1 151824Z 03006KT 36/19 A3008 RMK A01 T03560187  RH  037%=      5-min Rain = 0
KMC1 151825Z 02003KT 35/18 A3008 RMK A01 T03510184  RH  037%=      5-min Rain = 0
KMC1 151826Z 27001KT 35/18 A3008 RMK A01 T03470184  RH  038%=      5-min Rain = 0
KMC1 151827Z 28003KT 35/18 A3008 RMK A01 T03460184  RH  038%=      5-min Rain = 0
KMC1 151828Z 29001KT 35/19 A3008 RMK A01 T03460185  RH  039%=      5-min Rain = 0
KMC1 151829Z 02003KT 35/19 A3008 RMK A01 T03460185  RH  039%=      5-min Rain = 0
KMC1 151830Z 36005KT 35/19 A3008 RMK A01 T03490185  RH  038%=      5-min Rain = 0
KMC1 151831Z 34007KT 35/19 A3008 RMK A01 T03500185  RH  038%=      5-min Rain = 0
KMC1 151832Z 32005KT 35/18 A3007 RMK A01 T03510184  RH  037%=      5-min Rain = 0
KMC1 151833Z 31007KT 35/19 A3007 RMK A01 T03530186  RH  037%=      5-min Rain = 0
KMC1 151834Z 29004KT 36/19 A3007 RMK A01 T03560185  RH  037%=      5-min Rain = 0
KMC1 151835Z 35005KT 36/19 A3007 RMK A01 T03550187  RH  037%=      5-min Rain = 0
KMC1 151836Z 03007KT 36/18 A3007 RMK A01 T03570183  RH  036%=      5-min Rain = 0
KMC1 151837Z 03004KT 35/18 A3007 RMK A01 T03540182  RH  036%=      5-min Rain = 0
KMC1 151838Z 06003KT 35/18 A3007 RMK A01 T03530183  RH  037%=      5-min Rain = 0
KMC1 151839Z 05005KT 35/18 A3007 RMK A01 T03530183  RH  037%=      5-min Rain = 0
KMC1 151840Z 04004KT 35/18 A3007 RMK A01 T03530182  RH  037%=      5-min Rain = 0
KMC1 151841Z 03001KT 35/18 A3007 RMK A01 T03530183  RH  037%=      5-min Rain = 0
KMC1 151842Z 04001KT 36/18 A3007 RMK A01 T03550184  RH  037%=      5-min Rain = 0
KMC1 151843Z 02003KT 36/18 A3007 RMK A01 T03580184  RH  036%=      5-min Rain = 0
KMC1 151844Z 03004KT 36/18 A3007 RMK A01 T03590183  RH  035%=      5-min Rain = 0
KMC1 151845Z 07002KT 36/18 A3007 RMK A01 T03610183  RH  035%=      5-min Rain = 0
KMC1 151846Z 05002KT 36/18 A3006 RMK A01 T03640182  RH  034%=      5-min Rain = 0
KMC1 151847Z 01003KT 37/18 A3006 RMK A01 T03660184  RH  035%=      5-min Rain = 0
KMC1 151848Z 01004KT 37/19 A3006 RMK A01 T03670185  RH  034%=      5-min Rain = 0
KMC1 151849Z 00006KT 37/18 A3006 RMK A01 T03660183  RH  034%=      5-min Rain = 0
KMC1 151850Z 03006KT 36/18 A3006 RMK A01 T03620179  RH  034%=      5-min Rain = 0
KMC1 151851Z 04004KT 36/18 A3006 RMK A01 T03560177  RH  035%=      5-min Rain = 0
KMC1 151852Z 02004KT 35/18 A3006 RMK A01 T03500177  RH  036%=      5-min Rain = 0
KMC1 151853Z 03003KT 35/18 A3006 RMK A01 T03480178  RH  037%=      5-min Rain = 0
KMC1 151854Z 02002KT 35/18 A3006 RMK A01 T03480180  RH  037%=      5-min Rain = 0
KMC1 151855Z 00001KT 35/18 A3006 RMK A01 T03520180  RH  036%=      5-min Rain = 0
KMC1 151856Z 25002KT 35/18 A3006 RMK A01 T03520178  RH  036%=      5-min Rain = 0
KMC1 151857Z 23004KT 35/18 A3006 RMK A01 T03510175  RH  035%=      5-min Rain = 0
KMC1 151858Z 20004KT 35/18 A3006 RMK A01 T03500177  RH  036%=      5-min Rain = 0
KMC1 151859Z 19005KT 35/18 A3006 RMK A01 T03510176  RH  035%=      5-min Rain = 0
KMC1 151900Z 21004KT 35/17 A3006 RMK A01 T03530174  RH  035%=      5-min Rain = 0
KMC1 151901Z 27002KT 35/18 A3006 RMK A01 T03540175  RH  035%=      5-min Rain = 0
KMC1 151902Z 03004G9KT 36/18 A3005 RMK A01 T03580181  RH  035%=      5-min Rain = 0
KMC1 151903Z 01005KT 36/18 A3005 RMK A01 T03600180  RH  035%=      5-min Rain = 0
KMC1 151904Z 00007KT 36/18 A3005 RMK A01 T03620181  RH  035%=      5-min Rain = 0
KMC1 151905Z 34006KT 36/18 A3005 RMK A01 T03630181  RH  034%=      5-min Rain = 0
KMC1 151906Z 00008KT 36/18 A3005 RMK A01 T03610180  RH  034%=      5-min Rain = 0
KMC1 151907Z 35007KT 36/18 A3005 RMK A01 T03610179  RH  034%=      5-min Rain = 0
KMC1 151908Z 36006KT 36/17 A3006 RMK A01 T03580174  RH  034%=      5-min Rain = 0
KMC1 151909Z 35005KT 36/18 A3006 RMK A01 T03550175  RH  035%=      5-min Rain = 0
KMC1 151910Z 32004KT 36/18 A3006 RMK A01 T03570176  RH  034%=      5-min Rain = 0
KMC1 151911Z 33004KT 36/17 A3006 RMK A01 T03580173  RH  034%=      5-min Rain = 0
KMC1 151912Z 32004KT 36/17 A3005 RMK A01 T03590174  RH  034%=      5-min Rain = 0
KMC1 151913Z 27003KT 36/17 A3005 RMK A01 T03590172  RH  033%=      5-min Rain = 0
KMC1 151914Z 27005KT 36/17 A3005 RMK A01 T03560174  RH  034%=      5-min Rain = 0
KMC1 151915Z 29004KT 36/18 A3005 RMK A01 T03560175  RH  034%=      5-min Rain = 0
KMC1 151916Z 31005KT 36/18 A3005 RMK A01 T03570175  RH  034%=      5-min Rain = 0
KMC1 151917Z 33001KT 36/17 A3005 RMK A01 T03590173  RH  033%=      5-min Rain = 0
KMC1 151918Z 34003KT 36/17 A3005 RMK A01 T03590174  RH  034%=      5-min Rain = 0
KMC1 151919Z 00005KT 36/18 A3005 RMK A01 T03610177  RH  034%=      5-min Rain = 0
KMC1 151920Z 35010KT 37/18 A3005 RMK A01 T03660179  RH  033%=      5-min Rain = 0
KMC1 151921Z 35008KT 37/18 A3005 RMK A01 T03660176  RH  033%=      5-min Rain = 0
KMC1 151922Z 00007KT 36/18 A3005 RMK A01 T03630175  RH  033%=      5-min Rain = 0
KMC1 151923Z 36004KT 36/18 A3005 RMK A01 T03620175  RH  033%=      5-min Rain = 0
KMC1 151924Z 33007KT 36/18 A3005 RMK A01 T03600176  RH  034%=      5-min Rain = 0
KMC1 151925Z 32005KT 36/18 A3005 RMK A01 T03600178  RH  034%=      5-min Rain = 0
KMC1 151926Z 33003KT 36/18 A3005 RMK A01 T03620178  RH  034%=      5-min Rain = 0
KMC1 151927Z 33004KT 36/18 A3005 RMK A01 T03620177  RH  034%=      5-min Rain = 0
KMC1 151928Z 32004KT 36/18 A3005 RMK A01 T03620178  RH  034%=      5-min Rain = 0
KMC1 151929Z 02003KT 36/18 A3004 RMK A01 T03600178  RH  034%=      5-min Rain = 0
KMC1 151930Z 02005KT 36/18 A3004 RMK A01 T03610178  RH  034%=      5-min Rain = 0
KMC1 151931Z 35006KT 36/18 A3004 RMK A01 T03620176  RH  034%=      5-min Rain = 0
KMC1 151932Z 00007KT 36/18 A3004 RMK A01 T03610177  RH  034%=      5-min Rain = 0
KMC1 151933Z 01005KT 36/18 A3004 RMK A01 T03640177  RH  033%=      5-min Rain = 0
KMC1 151934Z 00006KT 37/18 A3004 RMK A01 T03650177  RH  033%=      5-min Rain = 0
KMC1 151935Z 36003KT 36/17 A3004 RMK A01 T03640172  RH  032%=      5-min Rain = 0
KMC1 151936Z 34004KT 36/17 A3004 RMK A01 T03640174  RH  033%=      5-min Rain = 0
KMC1 151937Z 30004KT 37/18 A3004 RMK A01 T03660177  RH  033%=      5-min Rain = 0
KMC1 151938Z 28002KT 37/18 A3004 RMK A01 T03690177  RH  032%=      5-min Rain = 0
KMC1 151939Z 35001KT 37/18 A3004 RMK A01 T03690177  RH  032%=      5-min Rain = 0
KMC1 151940Z 25002KT 37/18 A3004 RMK A01 T03690177  RH  033%=      5-min Rain = 0
KMC1 151941Z 27003KT 36/18 A3004 RMK A01 T03640177  RH  033%=      5-min Rain = 0
KMC1 151942Z 31004KT 36/18 A3004 RMK A01 T03600177  RH  034%=      5-min Rain = 0
KMC1 151943Z 30002KT 36/18 A3004 RMK A01 T03590177  RH  034%=      5-min Rain = 0
KMC1 151944Z 27002KT 36/18 A3004 RMK A01 T03590177  RH  034%=      5-min Rain = 0
KMC1 151945Z 25001KT 36/18 A3004 RMK A01 T03600179  RH  035%=      5-min Rain = 0
KMC1 151946Z 02003KT 37/18 A3004 RMK A01 T03650180  RH  034%=      5-min Rain = 0
KMC1 151947Z 07003KT 37/18 A3003 RMK A01 T03710179  RH  032%=      5-min Rain = 0
KMC1 151948Z 06003G8KT 37/18 A3003 RMK A01 T03730179  RH  032%=      5-min Rain = 0
KMC1 151949Z 06006KT 37/18 A3003 RMK A01 T03690177  RH  032%=      5-min Rain = 0
KMC1 151950Z 05006KT 37/18 A3003 RMK A01 T03660178  RH  033%=      5-min Rain = 0
KMC1 151951Z 03006KT 36/18 A3003 RMK A01 T03630178  RH  034%=      5-min Rain = 0
KMC1 151952Z 02008KT 36/18 A3003 RMK A01 T03610179  RH  034%=      5-min Rain = 0
KMC1 151953Z 02007KT 36/18 A3003 RMK A01 T03570179  RH  035%=      5-min Rain = 0
KMC1 151954Z 02006KT 35/18 A3003 RMK A01 T03540178  RH  035%=      5-min Rain = 0
KMC1 151955Z 02004KT 35/18 A3003 RMK A01 T03520179  RH  036%=      5-min Rain = 0
KMC1 151956Z 35005KT 35/18 A3003 RMK A01 T03530178  RH  036%=      5-min Rain = 0
KMC1 151957Z 36004KT 35/18 A3003 RMK A01 T03520175  RH  035%=      5-min Rain = 0
KMC1 151958Z 04002KT 35/18 A3003 RMK A01 T03500175  RH  036%=      5-min Rain = 0
KMC1 151959Z 01003KT 35/18 A3003 RMK A01 T03490176  RH  036%=      5-min Rain = 0
KMC1 152000Z 01004KT 35/17 A3003 RMK A01 T03490173  RH  035%=      5-min Rain = 0
KMC1 152001Z 36004KT 35/17 A3003 RMK A01 T03490173  RH  035%=      5-min Rain = 0
KMC1 152002Z 01004KT 35/17 A3003 RMK A01 T03490172  RH  035%=      5-min Rain = 0
KMC1 152003Z 02005KT 35/17 A3003 RMK A01 T03490171  RH  035%=      5-min Rain = 0
KMC1 152004Z 01004KT 35/17 A3003 RMK A01 T03490170  RH  035%=      5-min Rain = 0
KMC1 152005Z 01002KT 35/17 A3003 RMK A01 T03510171  RH  034%=      5-min Rain = 0
KMC1 152006Z 03003KT 36/17 A3003 RMK A01 T03570174  RH  034%=      5-min Rain = 0
KMC1 152007Z 36001KT 36/17 A3003 RMK A01 T03600172  RH  033%=      5-min Rain = 0
KMC1 152008Z 08001KT 36/17 A3003 RMK A01 T03620174  RH  033%=      5-min Rain = 0
KMC1 152009Z 05002KT 37/17 A3003 RMK A01 T03660174  RH  032%=      5-min Rain = 0
KMC1 152010Z 01002KT 37/17 A3003 RMK A01 T03700167  RH  030%=      5-min Rain = 0
KMC1 152011Z 01004KT 37/17 A3002 RMK A01 T03710166  RH  030%=      5-min Rain = 0
KMC1 152012Z 36003KT 37/17 A3002 RMK A01 T03700170  RH  031%=      5-min Rain = 0
KMC1 152013Z 00003KT 37/17 A3002 RMK A01 T03670170  RH  031%=      5-min Rain = 0
KMC1 152014Z 34003KT 37/17 A3002 RMK A01 T03670171  RH  032%=      5-min Rain = 0
KMC1 152015Z 02003KT 37/17 A3002 RMK A01 T03660172  RH  032%=      5-min Rain = 0
KMC1 152016Z 05001KT 36/17 A3002 RMK A01 T03640170  RH  032%=      5-min Rain = 0
KMC1 152017Z 10001KT 36/17 A3002 RMK A01 T03630171  RH  032%=      5-min Rain = 0
KMC1 152018Z 05003KT 36/17 A3002 RMK A01 T03620170  RH  032%=      5-min Rain = 0
KMC1 152019Z 00002KT 36/17 A3002 RMK A01 T03620168  RH  032%=      5-min Rain = 0
KMC1 152020Z 35002KT 36/17 A3002 RMK A01 T03600168  RH  032%=      5-min Rain = 0
KMC1 152021Z 15002KT 36/17 A3002 RMK A01 T03610170  RH  032%=      5-min Rain = 0
KMC1 152022Z 17005KT 36/17 A3002 RMK A01 T03630170  RH  032%=      5-min Rain = 0
KMC1 152023Z 18006KT 36/17 A3002 RMK A01 T03640170  RH  032%=      5-min Rain = 0
KMC1 152024Z 17005KT 37/17 A3002 RMK A01 T03650169  RH  032%=      5-min Rain = 0
KMC1 152025Z 16006KT 37/17 A3002 RMK A01 T03650171  RH  032%=      5-min Rain = 0
KMC1 152026Z 16005KT 37/17 A3002 RMK A01 T03650171  RH  032%=      5-min Rain = 0
KMC1 152027Z 16003KT 36/17 A3002 RMK A01 T03620169  RH  032%=      5-min Rain = 0
KMC1 152028Z 12002KT 36/17 A3001 RMK A01 T03610170  RH  032%=      5-min Rain = 0
KMC1 152029Z 06001KT 36/17 A3001 RMK A01 T03640170  RH  032%=      5-min Rain = 0
KMC1 152030Z 03001KT 37/17 A3001 RMK A01 T03680170  RH  031%=      5-min Rain = 0
KMC1 152031Z 36002KT 37/17 A3001 RMK A01 T03690169  RH  031%=      5-min Rain = 0
KMC1 152032Z 36003KT 37/17 A3001 RMK A01 T03690168  RH  031%=      5-min Rain = 0
KMC1 152033Z 01006KT 37/17 A3001 RMK A01 T03720165  RH  029%=      5-min Rain = 0
KMC1 152034Z 01008KT 38/16 A3001 RMK A01 T03750161  RH  028%=      5-min Rain = 0
KMC1 152035Z 35007KT 38/16 A3001 RMK A01 T03750161  RH  028%=      5-min Rain = 0
KMC1 152036Z 36004KT 37/16 A3001 RMK A01 T03730162  RH  029%=      5-min Rain = 0
KMC1 152037Z 02003KT 37/16 A3001 RMK A01 T03720160  RH  029%=      5-min Rain = 0
KMC1 152038Z 06003KT 37/16 A3001 RMK A01 T03730161  RH  029%=      5-min Rain = 0
KMC1 152039Z 02006KT 38/16 A3001 RMK A01 T03780164  RH  028%=      5-min Rain = 0
KMC1 152040Z 03007KT 38/16 A3001 RMK A01 T03820164  RH  028%=      5-min Rain = 0
KMC1 152041Z 01004KT 38/16 A3001 RMK A01 T03780162  RH  028%=      5-min Rain = 0
KMC1 152042Z 03005KT 37/16 A3001 RMK A01 T03720162  RH  029%=      5-min Rain = 0
KMC1 152043Z 04005KT 37/16 A3001 RMK A01 T03710161  RH  029%=      5-min Rain = 0
KMC1 152044Z 05005G10KT 37/16 A3001 RMK A01 T03700163  RH  029%=      5-min Rain = 0
KMC1 152045Z 05008KT 37/16 A3001 RMK A01 T03690162  RH  029%=      5-min Rain = 0
KMC1 152046Z 05007KT 37/16 A3001 RMK A01 T03670163  RH  030%=      5-min Rain = 0
KMC1 152047Z 05006KT 37/16 A3001 RMK A01 T03670164  RH  030%=      5-min Rain = 0
KMC1 152048Z 05007KT 37/16 A3001 RMK A01 T03690164  RH  030%=      5-min Rain = 0
KMC1 152049Z 03006KT 37/16 A3001 RMK A01 T03690164  RH  030%=      5-min Rain = 0
KMC1 152050Z 03006KT 37/16 A3001 RMK A01 T03690164  RH  030%=      5-min Rain = 0
KMC1 152051Z 01004KT 37/16 A3001 RMK A01 T03700162  RH  029%=      5-min Rain = 0
KMC1 152052Z 36004KT 37/16 A3001 RMK A01 T03700161  RH  029%=      5-min Rain = 0
KMC1 152053Z 02005KT 37/16 A3001 RMK A01 T03700161  RH  029%=      5-min Rain = 0
KMC1 152054Z 04006KT 37/16 A3001 RMK A01 T03680161  RH  030%=      5-min Rain = 0
KMC1 152055Z 03006KT 37/16 A3001 RMK A01 T03680160  RH  029%=      5-min Rain = 0
KMC1 152056Z 06005KT 37/16 A3001 RMK A01 T03690161  RH  029%=      5-min Rain = 0
KMC1 152057Z 06003KT 37/16 A3001 RMK A01 T03700162  RH  029%=      5-min Rain = 0
KMC1 152058Z 07002KT 37/16 A3001 RMK A01 T03700162  RH  029%=      5-min Rain = 0
KMC1 152059Z 08000KT 37/16 A3001 RMK A01 T03710162  RH  029%=      5-min Rain = 0
KMC1 152100Z 24000KT 37/16 A30 RMK A01 T03720162  RH  029%=      5-min Rain = 0
KMC1 152101Z 09002KT 38/16 A30 RMK A01 T03750164  RH  029%=      5-min Rain = 0
KMC1 152102Z 30002KT 38/16 A30 RMK A01 T03770163  RH  028%=      5-min Rain = 0
KMC1 152103Z 27003KT 38/16 A30 RMK A01 T03760163  RH  029%=      5-min Rain = 0
KMC1 152104Z 27005KT 38/16 A30 RMK A01 T03760161  RH  028%=      5-min Rain = 0
KMC1 152105Z 25005KT 38/16 A30 RMK A01 T03750161  RH  028%=      5-min Rain = 0
KMC1 152106Z 21003KT 37/16 A30 RMK A01 T03730161  RH  029%=      5-min Rain = 0
KMC1 152107Z 22003KT 37/16 A30 RMK A01 T03740161  RH  028%=      5-min Rain = 0
KMC1 152108Z 26003KT 38/16 A30 RMK A01 T03750160  RH  028%=      5-min Rain = 0
KMC1 152109Z 27003KT 38/16 A30 RMK A01 T03780161  RH  028%=      5-min Rain = 0
KMC1 152110Z 29003KT 38/16 A30 RMK A01 T03790159  RH  027%=      5-min Rain = 0
KMC1 152111Z 25002KT 38/16 A30 RMK A01 T03760159  RH  028%=      5-min Rain = 0
KMC1 152112Z 25004KT 38/16 A30 RMK A01 T03770157  RH  027%=      5-min Rain = 0
KMC1 152113Z 21002KT 38/16 A30 RMK A01 T03780155  RH  027%=      5-min Rain = 0
KMC1 152114Z 18003KT 38/16 A30 RMK A01 T03780156  RH  027%=      5-min Rain = 0
KMC1 152115Z 13003KT 38/16 A30 RMK A01 T03790156  RH  027%=      5-min Rain = 0
KMC1 152116Z 08001KT 38/15 A30 RMK A01 T03780154  RH  027%=      5-min Rain = 0
KMC1 152117Z 07002KT 38/16 A30 RMK A01 T03760155  RH  027%=      5-min Rain = 0
KMC1 152118Z 11002KT 38/16 A30 RMK A01 T03760155  RH  027%=      5-min Rain = 0
KMC1 152119Z 10001KT 38/16 A30 RMK A01 T03750155  RH  027%=      5-min Rain = 0
KMC1 152120Z 10001KT 38/15 A30 RMK A01 T03760153  RH  027%=      5-min Rain = 0
KMC1 152121Z 15001KT 38/15 A30 RMK A01 T03750152  RH  027%=      5-min Rain = 0
KMC1 152122Z 17002KT 37/15 A30 RMK A01 T03740152  RH  027%=      5-min Rain = 0
KMC1 152123Z 19001KT 37/15 A30 RMK A01 T03730153  RH  027%=      5-min Rain = 0
KMC1 152124Z 10001KT 37/15 A30 RMK A01 T03730152  RH  027%=      5-min Rain = 0
KMC1 152125Z 05001KT 37/15 A30 RMK A01 T03730152  RH  027%=      5-min Rain = 0
KMC1 152126Z 09002KT 37/15 A30 RMK A01 T03740153  RH  027%=      5-min Rain = 0
KMC1 152127Z 16004KT 38/15 A30 RMK A01 T03770153  RH  027%=      5-min Rain = 0
KMC1 152128Z 17003KT 38/15 A2999 RMK A01 T03770151  RH  026%=      5-min Rain = 0
KMC1 152129Z 23002KT 37/15 A2999 RMK A01 T03740152  RH  027%=      5-min Rain = 0
KMC1 152130Z 26003KT 37/15 A2999 RMK A01 T03730154  RH  027%=      5-min Rain = 0
KMC1 152131Z 27005KT 38/15 A2999 RMK A01 T03750151  RH  027%=      5-min Rain = 0
KMC1 152132Z 25004KT 38/15 A2999 RMK A01 T03760150  RH  026%=      5-min Rain = 0
KMC1 152133Z 24005KT 38/15 A2999 RMK A01 T03780152  RH  026%=      5-min Rain = 0
KMC1 152134Z 23002KT 38/15 A2999 RMK A01 T03790152  RH  026%=      5-min Rain = 0
KMC1 152135Z 17002KT 38/15 A2999 RMK A01 T03800151  RH  026%=      5-min Rain = 0
KMC1 152136Z 22002KT 38/15 A2999 RMK A01 T03810151  RH  026%=      5-min Rain = 0
KMC1 152137Z 34001KT 38/15 A2999 RMK A01 T03800154  RH  026%=      5-min Rain = 0
KMC1 152138Z 05005KT 38/15 A2999 RMK A01 T03810152  RH  026%=      5-min Rain = 0
KMC1 152139Z 05004KT 38/15 A2999 RMK A01 T03800152  RH  026%=      5-min Rain = 0
KMC1 152140Z 05004KT 38/15 A2999 RMK A01 T03790152  RH  026%=      5-min Rain = 0
KMC1 152141Z 08001KT 38/15 A2999 RMK A01 T03780152  RH  026%=      5-min Rain = 0
KMC1 152142Z 18000KT 38/15 A2999 RMK A01 T03790152  RH  026%=      5-min Rain = 0
KMC1 152143Z 04002G7KT 38/15 A2999 RMK A01 T03810153  RH  026%=      5-min Rain = 0
KMC1 152144Z 06005KT 38/15 A2999 RMK A01 T03820154  RH  026%=      5-min Rain = 0
KMC1 152145Z 08003KT 38/16 A2999 RMK A01 T03840156  RH  026%=      5-min Rain = 0
KMC1 152146Z 07001KT 39/16 A2999 RMK A01 T03860156  RH  026%=      5-min Rain = 0
KMC1 152147Z 06004KT 39/16 A2999 RMK A01 T03880157  RH  026%=      5-min Rain = 0
KMC1 152148Z 08005KT 39/15 A2999 RMK A01 T03890154  RH  025%=      5-min Rain = 0
KMC1 152149Z 08004KT 39/16 A2999 RMK A01 T03870155  RH  026%=      5-min Rain = 0
KMC1 152150Z 08004KT 39/15 A2999 RMK A01 T03860152  RH  025%=      5-min Rain = 0
KMC1 152151Z 07005KT 39/15 A2999 RMK A01 T03860152  RH  025%=      5-min Rain = 0
KMC1 152152Z 08006KT 39/15 A2999 RMK A01 T03860153  RH  025%=      5-min Rain = 0
KMC1 152153Z 06003KT 39/15 A2998 RMK A01 T03880153  RH  025%=      5-min Rain = 0
KMC1 152154Z 08004KT 39/15 A2998 RMK A01 T03900151  RH  025%=      5-min Rain = 0
KMC1 152155Z 08007KT 39/15 A2998 RMK A01 T03900151  RH  024%=      5-min Rain = 0
KMC1 152156Z 08006KT 39/15 A2998 RMK A01 T03880149  RH  025%=      5-min Rain = 0
KMC1 152157Z 07008KT 39/15 A2998 RMK A01 T03860148  RH  025%=      5-min Rain = 0
KMC1 152158Z 07005KT 39/15 A2998 RMK A01 T03850149  RH  025%=      5-min Rain = 0
KMC1 152159Z 06004KT 39/15 A2998 RMK A01 T03850149  RH  025%=      5-min Rain = 0
KMC1 152200Z 05002KT 39/15 A2998 RMK A01 T03850149  RH  025%=      5-min Rain = 0
KMC1 152201Z 07005KT 39/15 A2998 RMK A01 T03850150  RH  025%=      5-min Rain = 0
KMC1 152202Z 07005KT 39/15 A2998 RMK A01 T03860149  RH  025%=      5-min Rain = 0
KMC1 152203Z 06004KT 39/15 A2998 RMK A01 T03860149  RH  025%=      5-min Rain = 0
KMC1 152204Z 05005KT 39/15 A2998 RMK A01 T03870148  RH  025%=      5-min Rain = 0
KMC1 152205Z 06006KT 39/15 A2997 RMK A01 T03870149  RH  025%=      5-min Rain = 0
KMC1 152206Z 05006KT 39/15 A2997 RMK A01 T03850147  RH  024%=      5-min Rain = 0
KMC1 152207Z 05007KT 38/15 A2997 RMK A01 T03830146  RH  025%=      5-min Rain = 0
KMC1 152208Z 06004KT 38/15 A2997 RMK A01 T03810146  RH  025%=      5-min Rain = 0
KMC1 152209Z 07005KT 38/15 A2997 RMK A01 T03790147  RH  025%=      5-min Rain = 0
KMC1 152210Z 06004KT 38/15 A2997 RMK A01 T03800148  RH  025%=      5-min Rain = 0
KMC1 152211Z 04003KT 38/15 A2997 RMK A01 T03790146  RH  025%=      5-min Rain = 0
KMC1 152212Z 35002KT 38/15 A2997 RMK A01 T03760145  RH  025%=      5-min Rain = 0
KMC1 152213Z 00001KT 37/14 A2997 RMK A01 T03740144  RH  026%=      5-min Rain = 0
KMC1 152214Z 35003KT 37/14 A2997 RMK A01 T03730144  RH  026%=      5-min Rain = 0
KMC1 152215Z 06003KT 37/15 A2997 RMK A01 T03740146  RH  026%=      5-min Rain = 0
KMC1 152216Z 07002KT 38/15 A2997 RMK A01 T03750145  RH  026%=      5-min Rain = 0
KMC1 152217Z 09002KT 37/15 A2997 RMK A01 T03740146  RH  026%=      5-min Rain = 0
KMC1 152218Z 01003KT 37/15 A2997 RMK A01 T03730146  RH  026%=      5-min Rain = 0
KMC1 152219Z 00005KT 37/14 A2997 RMK A01 T03730144  RH  026%=      5-min Rain = 0
KMC1 152220Z 36003KT 37/15 A2997 RMK A01 T03730145  RH  026%=      5-min Rain = 0
KMC1 152221Z 01004KT 37/15 A2997 RMK A01 T03740145  RH  026%=      5-min Rain = 0
KMC1 152222Z 01004KT 38/14 A2997 RMK A01 T03750144  RH  025%=      5-min Rain = 0
KMC1 152223Z 36002KT 37/14 A2997 RMK A01 T03740143  RH  025%=      5-min Rain = 0
KMC1 152224Z 33003KT 37/14 A2997 RMK A01 T03740143  RH  025%=      5-min Rain = 0
KMC1 152225Z 35004KT 37/14 A2997 RMK A01 T03740143  RH  025%=      5-min Rain = 0
KMC1 152226Z 01001KT 37/14 A2997 RMK A01 T03740143  RH  025%=      5-min Rain = 0
KMC1 152227Z 08000KT 37/14 A2997 RMK A01 T03730142  RH  025%=      5-min Rain = 0
KMC1 152228Z 30004KT 37/14 A2997 RMK A01 T03730144  RH  026%=      5-min Rain = 0
KMC1 152229Z 30002KT 38/14 A2997 RMK A01 T03760143  RH  025%=      5-min Rain = 0
KMC1 152230Z 30004KT 38/14 A2997 RMK A01 T03760144  RH  025%=      5-min Rain = 0
KMC1 152231Z 31005KT 38/14 A2997 RMK A01 T03770144  RH  025%=      5-min Rain = 0
KMC1 152232Z 29003KT 38/14 A2997 RMK A01 T03760144  RH  025%=      5-min Rain = 0
KMC1 152233Z 25002KT 37/14 A2997 RMK A01 T03740144  RH  025%=      5-min Rain = 0
KMC1 152234Z 27003KT 37/14 A2997 RMK A01 T03730144  RH  026%=      5-min Rain = 0
KMC1 152235Z 31003KT 38/15 A2997 RMK A01 T03750145  RH  026%=      5-min Rain = 0
KMC1 152236Z 29004KT 38/15 A2997 RMK A01 T03780147  RH  026%=      5-min Rain = 0
KMC1 152237Z 31002KT 38/15 A2997 RMK A01 T03800147  RH  025%=      5-min Rain = 0
KMC1 152238Z 31002KT 38/15 A2997 RMK A01 T03830148  RH  025%=      5-min Rain = 0
KMC1 152239Z 33003KT 39/15 A2997 RMK A01 T03850146  RH  024%=      5-min Rain = 0
KMC1 152240Z 30003KT 38/15 A2997 RMK A01 T03840145  RH  024%=      5-min Rain = 0
KMC1 152241Z 27003KT 38/15 A2997 RMK A01 T03830145  RH  024%=      5-min Rain = 0
KMC1 152242Z 27003KT 38/15 A2997 RMK A01 T03820145  RH  025%=      5-min Rain = 0
KMC1 152243Z 29004KT 38/15 A2997 RMK A01 T03820146  RH  025%=      5-min Rain = 0
KMC1 152244Z 29003KT 38/14 A2997 RMK A01 T03820144  RH  024%=      5-min Rain = 0
KMC1 152245Z 30002KT 38/14 A2997 RMK A01 T03810144  RH  025%=      5-min Rain = 0
KMC1 152246Z 08003KT 38/14 A2997 RMK A01 T03820142  RH  024%=      5-min Rain = 0
KMC1 152247Z 02004KT 38/14 A2997 RMK A01 T03830137  RH  023%=      5-min Rain = 0
KMC1 152248Z 36005KT 38/14 A2997 RMK A01 T03830137  RH  023%=      5-min Rain = 0
KMC1 152249Z 36005KT 38/14 A2997 RMK A01 T03800139  RH  024%=      5-min Rain = 0
KMC1 152250Z 36004KT 38/14 A2997 RMK A01 T03790138  RH  024%=      5-min Rain = 0
KMC1 152251Z 02006KT 38/13 A2997 RMK A01 T03780132  RH  023%=      5-min Rain = 0
KMC1 152252Z 35004KT 38/14 A2997 RMK A01 T03770135  RH  024%=      5-min Rain = 0
KMC1 152253Z 35006KT 38/14 A2997 RMK A01 T03780137  RH  024%=      5-min Rain = 0
KMC1 152254Z 35004KT 38/14 A2997 RMK A01 T03770137  RH  024%=      5-min Rain = 0
KMC1 152255Z 02004KT 38/14 A2996 RMK A01 T03770138  RH  024%=      5-min Rain = 0
KMC1 152256Z 00005KT 38/14 A2996 RMK A01 T03790140  RH  024%=      5-min Rain = 0
KMC1 152257Z 03006KT 38/14 A2996 RMK A01 T03800141  RH  024%=      5-min Rain = 0
KMC1 152258Z 03005KT 38/14 A2996 RMK A01 T03790140  RH  024%=      5-min Rain = 0
KMC1 152259Z 04006KT 38/14 A2996 RMK A01 T03770140  RH  025%=      5-min Rain = 0
KMC1 152300Z 01004KT 37/14 A2996 RMK A01 T03730141  RH  025%=      5-min Rain = 0
KMC1 152301Z 01002KT 37/14 A2996 RMK A01 T03730140  RH  025%=      5-min Rain = 0
KMC1 152302Z 36002KT 37/14 A2996 RMK A01 T03720140  RH  025%=      5-min Rain = 0
KMC1 152303Z 00002KT 37/14 A2997 RMK A01 T03720140  RH  025%=      5-min Rain = 0
KMC1 152304Z 03003KT 37/14 A2997 RMK A01 T03740140  RH  025%=      5-min Rain = 0
KMC1 152305Z 04005KT 38/13 A2997 RMK A01 T03750133  RH  024%=      5-min Rain = 0
KMC1 152306Z 07004KT 38/13 A2996 RMK A01 T03750133  RH  024%=      5-min Rain = 0
KMC1 152307Z 08002KT 38/14 A2996 RMK A01 T03750135  RH  024%=      5-min Rain = 0
KMC1 152308Z 09001KT 38/14 A2996 RMK A01 T03770135  RH  024%=      5-min Rain = 0
KMC1 152309Z 08003KT 38/13 A2996 RMK A01 T03790134  RH  023%=      5-min Rain = 0
KMC1 152310Z 07002KT 38/13 A2996 RMK A01 T03790132  RH  023%=      5-min Rain = 0
KMC1 152311Z 06002KT 38/13 A2996 RMK A01 T03780134  RH  023%=      5-min Rain = 0
KMC1 152312Z 03003KT 38/13 A2996 RMK A01 T03780133  RH  023%=      5-min Rain = 0
KMC1 152313Z 01004KT 38/13 A2996 RMK A01 T03780133  RH  023%=      5-min Rain = 0
KMC1 152314Z 04005KT 38/14 A2996 RMK A01 T03770135  RH  024%=      5-min Rain = 0
KMC1 152315Z 04005KT 38/14 A2996 RMK A01 T03760139  RH  024%=      5-min Rain = 0
KMC1 152316Z 02004KT 38/14 A2996 RMK A01 T03750144  RH  025%=      5-min Rain = 0
KMC1 152317Z 04004KT 38/14 A2996 RMK A01 T03750144  RH  026%=      5-min Rain = 0
KMC1 152318Z 05003KT 38/14 A2996 RMK A01 T03750142  RH  025%=      5-min Rain = 0
KMC1 152319Z 08003KT 38/14 A2996 RMK A01 T03750140  RH  025%=      5-min Rain = 0
KMC1 152320Z 08003KT 38/14 A2996 RMK A01 T03750136  RH  024%=      5-min Rain = 0
KMC1 152321Z 12001KT 38/14 A2996 RMK A01 T03750136  RH  024%=      5-min Rain = 0
KMC1 152322Z 07002KT 38/14 A2996 RMK A01 T03770142  RH  025%=      5-min Rain = 0
KMC1 152323Z 01004KT 38/16 A2996 RMK A01 T03780157  RH  027%=      5-min Rain = 0
KMC1 152324Z 01003KT 38/16 A2996 RMK A01 T03780160  RH  028%=      5-min Rain = 0
KMC1 152325Z 03005KT 38/16 A2996 RMK A01 T03770161  RH  028%=      5-min Rain = 0
KMC1 152326Z 04005KT 38/16 A2996 RMK A01 T03760161  RH  028%=      5-min Rain = 0
KMC1 152327Z 03005KT 38/16 A2996 RMK A01 T03750164  RH  029%=      5-min Rain = 0
KMC1 152328Z 06006KT 38/17 A2996 RMK A01 T03750165  RH  029%=      5-min Rain = 0
KMC1 152329Z 05008KT 38/16 A2996 RMK A01 T03750164  RH  029%=      5-min Rain = 0
KMC1 152330Z 03006KT 37/16 A2996 RMK A01 T03730162  RH  029%=      5-min Rain = 0
KMC1 152331Z 02005KT 37/16 A2996 RMK A01 T03710161  RH  029%=      5-min Rain = 0
KMC1 152332Z 03007KT 37/16 A2996 RMK A01 T03700161  RH  029%=      5-min Rain = 0
KMC1 152333Z 04007KT 37/16 A2996 RMK A01 T03690161  RH  029%=      5-min Rain = 0
KMC1 152334Z 02006KT 37/16 A2996 RMK A01 T03680160  RH  029%=      5-min Rain = 0
KMC1 152335Z 02004KT 37/16 A2996 RMK A01 T03670159  RH  029%=      5-min Rain = 0
KMC1 152336Z 03006KT 37/16 A2996 RMK A01 T03670160  RH  029%=      5-min Rain = 0
KMC1 152337Z 03005KT 37/16 A2996 RMK A01 T03690161  RH  029%=      5-min Rain = 0
KMC1 152338Z 06002KT 37/16 A2996 RMK A01 T03690161  RH  029%=      5-min Rain = 0
KMC1 152339Z 06003KT 37/16 A2996 RMK A01 T03700162  RH  029%=      5-min Rain = 0
KMC1 152340Z 04005KT 37/16 A2996 RMK A01 T03690162  RH  029%=      5-min Rain = 0
KMC1 152341Z 04006KT 37/16 A2996 RMK A01 T03680161  RH  029%=      5-min Rain = 0
KMC1 152342Z 03004KT 37/16 A2996 RMK A01 T03670161  RH  030%=      5-min Rain = 0
KMC1 152343Z 03004KT 37/16 A2996 RMK A01 T03670161  RH  030%=      5-min Rain = 0
KMC1 152344Z 04004KT 37/16 A2996 RMK A01 T03670162  RH  030%=      5-min Rain = 0
KMC1 152345Z 03005KT 37/16 A2996 RMK A01 T03680162  RH  030%=      5-min Rain = 0
KMC1 152346Z 04004KT 37/16 A2996 RMK A01 T03670162  RH  030%=      5-min Rain = 0
KMC1 152347Z 05002KT 37/16 A2996 RMK A01 T03660162  RH  030%=      5-min Rain = 0
KMC1 152348Z 05002KT 37/16 A2996 RMK A01 T03650162  RH  030%=      5-min Rain = 0
KMC1 152349Z 07003KT 37/16 A2996 RMK A01 T03650163  RH  030%=      5-min Rain = 0
KMC1 152350Z 04004KT 37/16 A2996 RMK A01 T03660163  RH  030%=      5-min Rain = 0
KMC1 152351Z 03007KT 37/17 A2996 RMK A01 T03680168  RH  031%=      5-min Rain = 0
KMC1 152352Z 03008KT 37/17 A2996 RMK A01 T03680170  RH  031%=      5-min Rain = 0
KMC1 152353Z 04006KT 37/17 A2996 RMK A01 T03670172  RH  032%=      5-min Rain = 0
KMC1 152354Z 04006KT 37/17 A2996 RMK A01 T03670173  RH  032%=      5-min Rain = 0
KMC1 152355Z 05004KT 37/17 A2996 RMK A01 T03680174  RH  032%=      5-min Rain = 0
KMC1 152356Z 05005KT 37/17 A2996 RMK A01 T03680174  RH  032%=      5-min Rain = 0
KMC1 152357Z 06002KT 37/18 A2996 RMK A01 T03690175  RH  032%=      5-min Rain = 0
KMC1 152358Z 08004KT 37/18 A2996 RMK A01 T03710176  RH  032%=      5-min Rain = 0
KMC1 152359Z 07002KT 37/18 A2996 RMK A01 T03710177  RH  032%=      5-min Rain = 0
KMC1 160000Z 11007KT 37/18 A2996 RMK A01 T03720180  RH  032%=      5-min Rain = 0
KMC1 160001Z 13008KT 37/18 A2996 RMK A01 T03700182  RH  033%=      5-min Rain = 0
KMC1 160002Z 13010KT 37/18 A2996 RMK A01 T03660184  RH  034%=      5-min Rain = 0
KMC1 160003Z 13010KT 36/19 A2996 RMK A01 T03640185  RH  035%=      5-min Rain = 0
KMC1 160004Z 14009KT 36/19 A2996 RMK A01 T03610185  RH  036%=      5-min Rain = 0
KMC1 160005Z 14009KT 36/19 A2996 RMK A01 T03600185  RH  036%=      5-min Rain = 0
KMC1 160006Z 15010KT 36/18 A2997 RMK A01 T03590184  RH  036%=      5-min Rain = 0
KMC1 160007Z 15008KT 36/18 A2997 RMK A01 T03580184  RH  036%=      5-min Rain = 0
KMC1 160008Z 15007KT 36/18 A2997 RMK A01 T03560184  RH  036%=      5-min Rain = 0
KMC1 160009Z 16006KT 36/18 A2997 RMK A01 T03560184  RH  036%=      5-min Rain = 0
KMC1 160010Z 16007KT 36/18 A2997 RMK A01 T03560184  RH  036%=      5-min Rain = 0
KMC1 160011Z 17006KT 36/18 A2997 RMK A01 T03560184  RH  036%=      5-min Rain = 0
KMC1 160012Z 15004KT 36/18 A2997 RMK A01 T03560184  RH  036%=      5-min Rain = 0
KMC1 160013Z 14007KT 36/19 A2997 RMK A01 T03560185  RH  036%=      5-min Rain = 0
KMC1 160014Z 16005KT 36/19 A2997 RMK A01 T03570185  RH  036%=      5-min Rain = 0
KMC1 160015Z 15004KT 36/19 A2997 RMK A01 T03560185  RH  037%=      5-min Rain = 0
KMC1 160016Z 11006KT 36/19 A2997 RMK A01 T03560186  RH  037%=      5-min Rain = 0
KMC1 160017Z 13008KT 36/19 A2997 RMK A01 T03570186  RH  037%=      5-min Rain = 0
KMC1 160018Z 13008KT 36/19 A2997 RMK A01 T03570185  RH  037%=      5-min Rain = 0
KMC1 160019Z 12006KT 36/19 A2997 RMK A01 T03570186  RH  037%=      5-min Rain = 0
KMC1 160020Z 11009KT 36/19 A2997 RMK A01 T03560185  RH  037%=      5-min Rain = 0
KMC1 160021Z 12010KT 35/19 A2997 RMK A01 T03540185  RH  037%=      5-min Rain = 0
KMC1 160022Z 11009KT 35/18 A2997 RMK A01 T03520184  RH  037%=      5-min Rain = 0
KMC1 160023Z 13007KT 35/18 A2997 RMK A01 T03500184  RH  038%=      5-min Rain = 0
KMC1 160024Z 11010KT 35/18 A2997 RMK A01 T03500184  RH  038%=      5-min Rain = 0
KMC1 160025Z 11009KT 35/18 A2997 RMK A01 T03500184  RH  038%=      5-min Rain = 0
KMC1 160026Z 13006G11KT 35/19 A2997 RMK A01 T03500185  RH  038%=      5-min Rain = 0
KMC1 160027Z 13008KT 35/19 A2997 RMK A01 T03500185  RH  038%=      5-min Rain = 0
KMC1 160028Z 13008KT 35/19 A2997 RMK A01 T03500185  RH  038%=      5-min Rain = 0
KMC1 160029Z 12010KT 35/18 A2997 RMK A01 T03490184  RH  038%=      5-min Rain = 0
KMC1 160030Z 12008KT 35/18 A2997 RMK A01 T03480184  RH  038%=      5-min Rain = 0
KMC1 160031Z 12008KT 35/18 A2997 RMK A01 T03470184  RH  038%=      5-min Rain = 0
KMC1 160032Z 13010KT 35/18 A2997 RMK A01 T03460184  RH  038%=      5-min Rain = 0
KMC1 160033Z 12011KT 35/18 A2997 RMK A01 T03450183  RH  038%=      5-min Rain = 0
KMC1 160034Z 13010KT 34/18 A2997 RMK A01 T03440183  RH  039%=      5-min Rain = 0
KMC1 160035Z 13009KT 34/18 A2997 RMK A01 T03440183  RH  039%=      5-min Rain = 0
KMC1 160036Z 12009KT 34/18 A2997 RMK A01 T03440183  RH  039%=      5-min Rain = 0
KMC1 160037Z 12009KT 34/18 A2997 RMK A01 T03430183  RH  039%=      5-min Rain = 0
KMC1 160038Z 13007KT 34/18 A2997 RMK A01 T03430183  RH  039%=      5-min Rain = 0
KMC1 160039Z 14007KT 34/18 A2997 RMK A01 T03430183  RH  039%=      5-min Rain = 0
KMC1 160040Z 13008KT 34/18 A2997 RMK A01 T03430183  RH  039%=      5-min Rain = 0
KMC1 160041Z 13008KT 34/18 A2997 RMK A01 T03430183  RH  039%=      5-min Rain = 0
KMC1 160042Z 12010KT 34/18 A2997 RMK A01 T03430184  RH  039%=      5-min Rain = 0
KMC1 160043Z 13008KT 34/18 A2997 RMK A01 T03420183  RH  039%=      5-min Rain = 0
KMC1 160044Z 13007KT 34/18 A2997 RMK A01 T03410183  RH  039%=      5-min Rain = 0
KMC1 160045Z 13007KT 34/18 A2997 RMK A01 T03410183  RH  039%=      5-min Rain = 0
KMC1 160046Z 13007KT 34/18 A2997 RMK A01 T03400183  RH  039%=      5-min Rain = 0
KMC1 160047Z 13007KT 34/18 A2997 RMK A01 T03400183  RH  039%=      5-min Rain = 0
KMC1 160048Z 12005KT 34/18 A2998 RMK A01 T03400183  RH  040%=      5-min Rain = 0
KMC1 160049Z 12007KT 34/18 A2998 RMK A01 T03390184  RH  040%=      5-min Rain = 0
KMC1 160050Z 12007KT 34/18 A2997 RMK A01 T03390184  RH  040%=      5-min Rain = 0
KMC1 160051Z 12007KT 34/18 A2997 RMK A01 T03390183  RH  040%=      5-min Rain = 0
KMC1 160052Z 12006KT 34/18 A2997 RMK A01 T03380183  RH  040%=      5-min Rain = 0
KMC1 160053Z 14005KT 34/18 A2997 RMK A01 T03380184  RH  040%=      5-min Rain = 0
KMC1 160054Z 13005KT 34/18 A2997 RMK A01 T03380184  RH  040%=      5-min Rain = 0
KMC1 160055Z 13006KT 34/18 A2997 RMK A01 T03380184  RH  040%=      5-min Rain = 0
KMC1 160056Z 13007KT 34/18 A2998 RMK A01 T03370184  RH  040%=      5-min Rain = 0
KMC1 160057Z 14007KT 34/18 A2998 RMK A01 T03370183  RH  040%=      5-min Rain = 0
KMC1 160058Z 12007KT 34/18 A2998 RMK A01 T03360183  RH  040%=      5-min Rain = 0
KMC1 160059Z 13005KT 34/18 A2998 RMK A01 T03360183  RH  040%=      5-min Rain = 0
KMC1 160100Z 13005KT 34/18 A2998 RMK A01 T03360183  RH  040%=      5-min Rain = 0
KMC1 160101Z 13006KT 34/18 A2998 RMK A01 T03350183  RH  041%=      5-min Rain = 0
KMC1 160102Z 13005KT 34/18 A2998 RMK A01 T03350183  RH  041%=      5-min Rain = 0
KMC1 160103Z 13006KT 34/18 A2998 RMK A01 T03350183  RH  041%=      5-min Rain = 0
KMC1 160104Z 14005KT 33/18 A2998 RMK A01 T03340183  RH  041%=      5-min Rain = 0
KMC1 160105Z 13005KT 33/18 A2998 RMK A01 T03340183  RH  041%=      5-min Rain = 0
KMC1 160106Z 13005KT 33/18 A2998 RMK A01 T03340183  RH  041%=      5-min Rain = 0
KMC1 160107Z 14005KT 33/18 A2998 RMK A01 T03330183  RH  041%=      5-min Rain = 0
KMC1 160108Z 13004KT 33/18 A2998 RMK A01 T03330182  RH  041%=      5-min Rain = 0
KMC1 160109Z 14004KT 33/18 A2998 RMK A01 T03320182  RH  041%=      5-min Rain = 0
KMC1 160110Z 13007KT 33/18 A2998 RMK A01 T03320182  RH  041%=      5-min Rain = 0
KMC1 160111Z 13006KT 33/18 A2998 RMK A01 T03310182  RH  041%=      5-min Rain = 0
KMC1 160112Z 14006KT 33/18 A2998 RMK A01 T03310182  RH  041%=      5-min Rain = 0
KMC1 160113Z 13004KT 33/18 A2998 RMK A01 T03310181  RH  041%=      5-min Rain = 0
KMC1 160114Z 14004KT 33/18 A2998 RMK A01 T03300181  RH  041%=      5-min Rain = 0
KMC1 160115Z 13005KT 33/18 A2998 RMK A01 T03300182  RH  041%=      5-min Rain = 0
KMC1 160116Z 14005KT 33/18 A2998 RMK A01 T03290181  RH  041%=      5-min Rain = 0
KMC1 160117Z 14005KT 33/18 A2998 RMK A01 T03290182  RH  042%=      5-min Rain = 0
KMC1 160118Z 14005KT 33/18 A2998 RMK A01 T03280182  RH  042%=      5-min Rain = 0
KMC1 160119Z 13006KT 33/18 A2998 RMK A01 T03280181  RH  042%=      5-min Rain = 0
KMC1 160120Z 14006KT 33/18 A2998 RMK A01 T03280181  RH  042%=      5-min Rain = 0
KMC1 160121Z 14005KT 33/18 A2998 RMK A01 T03280182  RH  042%=      5-min Rain = 0
KMC1 160122Z 14005KT 33/18 A2999 RMK A01 T03270181  RH  042%=      5-min Rain = 0
KMC1 160123Z 15003KT 33/18 A2999 RMK A01 T03270181  RH  042%=      5-min Rain = 0
KMC1 160124Z 15003KT 33/18 A2999 RMK A01 T03270181  RH  042%=      5-min Rain = 0
KMC1 160125Z 15004KT 33/18 A2999 RMK A01 T03260181  RH  042%=      5-min Rain = 0
KMC1 160126Z 15003KT 33/18 A2999 RMK A01 T03260181  RH  042%=      5-min Rain = 0
KMC1 160127Z 15003KT 33/18 A2999 RMK A01 T03260182  RH  042%=      5-min Rain = 0
KMC1 160128Z 17004KT 33/18 A2999 RMK A01 T03250181  RH  042%=      5-min Rain = 0
KMC1 160129Z 15003KT 33/18 A2999 RMK A01 T03250181  RH  043%=      5-min Rain = 0
KMC1 160130Z 16005KT 33/18 A2999 RMK A01 T03250182  RH  043%=      5-min Rain = 0
KMC1 160131Z 16004KT 32/18 A2999 RMK A01 T03240182  RH  043%=      5-min Rain = 0
KMC1 160132Z 16003KT 32/18 A2999 RMK A01 T03240182  RH  043%=      5-min Rain = 0
KMC1 160133Z 16003KT 32/18 A2999 RMK A01 T03240182  RH  043%=      5-min Rain = 0
KMC1 160134Z 15003KT 32/18 A2999 RMK A01 T03230182  RH  043%=      5-min Rain = 0
KMC1 160135Z 16003KT 32/18 A2999 RMK A01 T03230182  RH  043%=      5-min Rain = 0
KMC1 160136Z 16005KT 32/18 A2999 RMK A01 T03220182  RH  043%=      5-min Rain = 0
KMC1 160137Z 15004KT 32/18 A2999 RMK A01 T03220182  RH  043%=      5-min Rain = 0
KMC1 160138Z 15004KT 32/18 A2999 RMK A01 T03220182  RH  043%=      5-min Rain = 0
KMC1 160139Z 15004KT 32/18 A2999 RMK A01 T03220182  RH  043%=      5-min Rain = 0
KMC1 160140Z 15004KT 32/18 A2999 RMK A01 T03210182  RH  043%=      5-min Rain = 0
KMC1 160141Z 16004KT 32/18 A2999 RMK A01 T03210182  RH  044%=      5-min Rain = 0
KMC1 160142Z 17004KT 32/18 A2999 RMK A01 T03210182  RH  044%=      5-min Rain = 0
KMC1 160143Z 16005KT 32/18 A2999 RMK A01 T03210182  RH  044%=      5-min Rain = 0
KMC1 160144Z 16005KT 32/18 A2999 RMK A01 T03210182  RH  044%=      5-min Rain = 0
KMC1 160145Z 16005KT 32/18 A2999 RMK A01 T03200182  RH  044%=      5-min Rain = 0
KMC1 160146Z 16004KT 32/18 A2999 RMK A01 T03200182  RH  044%=      5-min Rain = 0
KMC1 160147Z 16005KT 32/18 A2999 RMK A01 T03200182  RH  044%=      5-min Rain = 0
KMC1 160148Z 16005KT 32/18 A2999 RMK A01 T03200183  RH  044%=      5-min Rain = 0
KMC1 160149Z 16004KT 32/18 A2999 RMK A01 T03200182  RH  044%=      5-min Rain = 0
KMC1 160150Z 16005KT 32/18 A2999 RMK A01 T03190182  RH  044%=      5-min Rain = 0
KMC1 160151Z 16005KT 32/18 A2999 RMK A01 T03190182  RH  044%=      5-min Rain = 0
KMC1 160152Z 15005KT 32/18 A2999 RMK A01 T03190183  RH  044%=      5-min Rain = 0
KMC1 160153Z 15005KT 32/18 A2999 RMK A01 T03190182  RH  044%=      5-min Rain = 0
KMC1 160154Z 15005KT 32/18 A2999 RMK A01 T03190183  RH  044%=      5-min Rain = 0
KMC1 160155Z 15005KT 32/18 A2999 RMK A01 T03180182  RH  044%=      5-min Rain = 0
KMC1 160156Z 14005KT 32/18 A2999 RMK A01 T03180183  RH  045%=      5-min Rain = 0
KMC1 160157Z 14005KT 32/18 A2999 RMK A01 T03180183  RH  045%=      5-min Rain = 0
KMC1 160158Z 15006KT 32/18 A2999 RMK A01 T03180183  RH  045%=      5-min Rain = 0
KMC1 160159Z 14004KT 32/18 A2999 RMK A01 T03180183  RH  045%=      5-min Rain = 0
KMC1 160200Z 14004KT 32/18 A2999 RMK A01 T03180183  RH  045%=      5-min Rain = 0
KMC1 160201Z 14006KT 32/18 A2999 RMK A01 T03170183  RH  045%=      5-min Rain = 0
KMC1 160202Z 14004KT 32/18 A2999 RMK A01 T03170183  RH  045%=      5-min Rain = 0
KMC1 160203Z 14004KT 32/18 A2999 RMK A01 T03160183  RH  045%=      5-min Rain = 0
KMC1 160204Z 13004KT 32/18 A2999 RMK A01 T03160183  RH  045%=      5-min Rain = 0
KMC1 160205Z 14003KT 32/18 A2999 RMK A01 T03160183  RH  045%=      5-min Rain = 0
KMC1 160206Z 13004KT 32/18 A2999 RMK A01 T03150183  RH  045%=      5-min Rain = 0
KMC1 160207Z 14004KT 31/18 A2999 RMK A01 T03140183  RH  046%=      5-min Rain = 0
KMC1 160208Z 14005KT 31/18 A2999 RMK A01 T03140183  RH  046%=      5-min Rain = 0
KMC1 160209Z 14004KT 31/18 A2999 RMK A01 T03130183  RH  046%=      5-min Rain = 0
KMC1 160210Z 14004KT 31/18 A2999 RMK A01 T03130183  RH  046%=      5-min Rain = 0
KMC1 160211Z 14004KT 31/18 A2999 RMK A01 T03120183  RH  046%=      5-min Rain = 0
KMC1 160212Z 14004KT 31/18 A2999 RMK A01 T03120183  RH  046%=      5-min Rain = 0
KMC1 160213Z 14004KT 31/18 A2999 RMK A01 T03110183  RH  047%=      5-min Rain = 0
KMC1 160214Z 14005KT 31/18 A2999 RMK A01 T03110184  RH  047%=      5-min Rain = 0
KMC1 160215Z 15003KT 31/18 A2999 RMK A01 T03100184  RH  047%=      5-min Rain = 0
KMC1 160216Z 14003KT 31/18 A2999 RMK A01 T03100184  RH  047%=      5-min Rain = 0
KMC1 160217Z 15003KT 31/18 A2999 RMK A01 T03100184  RH  047%=      5-min Rain = 0
KMC1 160218Z 14004KT 31/18 A2999 RMK A01 T03090184  RH  047%=      5-min Rain = 0
KMC1 160219Z 15004KT 31/18 A2999 RMK A01 T03080184  RH  047%=      5-min Rain = 0
KMC1 160220Z 14003KT 31/18 A2999 RMK A01 T03080184  RH  047%=      5-min Rain = 0
KMC1 160221Z 13003KT 31/18 A2999 RMK A01 T03080184  RH  048%=      5-min Rain = 0
KMC1 160222Z 14004KT 31/18 A2999 RMK A01 T03070184  RH  048%=      5-min Rain = 0
KMC1 160223Z 14004KT 31/18 A2999 RMK A01 T03070184  RH  048%=      5-min Rain = 0
KMC1 160224Z 14004KT 31/18 A2999 RMK A01 T03060184  RH  048%=      5-min Rain = 0
KMC1 160225Z 14003KT 31/18 A2999 RMK A01 T03050184  RH  048%=      5-min Rain = 0
KMC1 160226Z 14003KT 31/18 A2999 RMK A01 T03050184  RH  048%=      5-min Rain = 0
KMC1 160227Z 14004KT 30/18 A2999 RMK A01 T03040184  RH  049%=      5-min Rain = 0
KMC1 160228Z 15003KT 30/19 A2999 RMK A01 T03040185  RH  049%=      5-min Rain = 0
KMC1 160229Z 15003KT 30/19 A2999 RMK A01 T03040185  RH  049%=      5-min Rain = 0
KMC1 160230Z 14004KT 30/19 A2999 RMK A01 T03030185  RH  049%=      5-min Rain = 0
KMC1 160231Z 14003KT 30/19 A30 RMK A01 T03030185  RH  049%=      5-min Rain = 0
KMC1 160232Z 15004KT 30/19 A30 RMK A01 T03020185  RH  049%=      5-min Rain = 0
KMC1 160233Z 14004KT 30/19 A30 RMK A01 T03020185  RH  050%=      5-min Rain = 0
KMC1 160234Z 14004KT 30/19 A30 RMK A01 T03020185  RH  050%=      5-min Rain = 0
KMC1 160235Z 15004KT 30/19 A30 RMK A01 T03010185  RH  050%=      5-min Rain = 0
KMC1 160236Z 15004KT 30/19 A30 RMK A01 T03010186  RH  050%=      5-min Rain = 0
KMC1 160237Z 14004KT 30/19 A30 RMK A01 T03010186  RH  050%=      5-min Rain = 0
KMC1 160238Z 14004KT 30/19 A30 RMK A01 T03010186  RH  050%=      5-min Rain = 0
KMC1 160239Z 14004KT 30/19 A30 RMK A01 T03010185  RH  050%=      5-min Rain = 0
KMC1 160240Z 15004KT 30/19 A30 RMK A01 T03000186  RH  050%=      5-min Rain = 0
KMC1 160241Z 14004KT 30/19 A30 RMK A01 T03000186  RH  050%=      5-min Rain = 0
KMC1 160242Z 14005KT 30/19 A30 RMK A01 T03000186  RH  050%=      5-min Rain = 0
KMC1 160243Z 14004KT 30/19 A30 RMK A01 T02990186  RH  051%=      5-min Rain = 0
KMC1 160244Z 14004KT 30/19 A30 RMK A01 T02990186  RH  051%=      5-min Rain = 0
KMC1 160245Z 14004KT 30/19 A30 RMK A01 T02980186  RH  051%=      5-min Rain = 0
KMC1 160246Z 14005KT 30/19 A30 RMK A01 T02980186  RH  051%=      5-min Rain = 0
KMC1 160247Z 13005KT 30/19 A30 RMK A01 T02980186  RH  051%=      5-min Rain = 0
KMC1 160248Z 14006KT 30/19 A30 RMK A01 T02970186  RH  051%=      5-min Rain = 0
KMC1 160249Z 14006KT 30/19 A30 RMK A01 T02970186  RH  051%=      5-min Rain = 0
KMC1 160250Z 14005KT 30/19 A30 RMK A01 T02970187  RH  051%=      5-min Rain = 0
KMC1 160251Z 14005KT 30/19 A30 RMK A01 T02970187  RH  051%=      5-min Rain = 0
KMC1 160252Z 14006KT 30/19 A30 RMK A01 T02970186  RH  051%=      5-min Rain = 0
KMC1 160253Z 14004KT 30/19 A30 RMK A01 T02970187  RH  052%=      5-min Rain = 0
KMC1 160254Z 13006KT 30/19 A30 RMK A01 T02960186  RH  052%=      5-min Rain = 0
KMC1 160255Z 13006KT 30/19 A30 RMK A01 T02960187  RH  052%=      5-min Rain = 0
KMC1 160256Z 14005KT 30/19 A30 RMK A01 T02960187  RH  052%=      5-min Rain = 0
KMC1 160257Z 13006KT 30/19 A30 RMK A01 T02960186  RH  052%=      5-min Rain = 0
KMC1 160258Z 14004KT 30/19 A30 RMK A01 T02960187  RH  052%=      5-min Rain = 0
KMC1 160259Z 14005KT 30/19 A30 RMK A01 T02950186  RH  052%=      5-min Rain = 0
KMC1 160300Z 14004KT 30/19 A30 RMK A01 T02950186  RH  052%=      5-min Rain = 0
KMC1 160301Z 15005KT 30/19 A30 RMK A01 T02950186  RH  052%=      5-min Rain = 0
KMC1 160302Z 14005KT 29/19 A30 RMK A01 T02940186  RH  052%=      5-min Rain = 0
KMC1 160303Z 14005KT 29/19 A30 RMK A01 T02940186  RH  052%=      5-min Rain = 0
KMC1 160304Z 15004KT 29/19 A30 RMK A01 T02940186  RH  052%=      5-min Rain = 0
KMC1 160305Z 15004KT 29/19 A30 RMK A01 T02930186  RH  052%=      5-min Rain = 0
KMC1 160306Z 15004KT 29/19 A30 RMK A01 T02930186  RH  053%=      5-min Rain = 0
KMC1 160307Z 15004KT 29/19 A3001 RMK A01 T02930186  RH  053%=      5-min Rain = 0
KMC1 160308Z 15004KT 29/19 A3001 RMK A01 T02920186  RH  053%=      5-min Rain = 0
KMC1 160309Z 15005KT 29/19 A3001 RMK A01 T02920186  RH  053%=      5-min Rain = 0
KMC1 160310Z 15005KT 29/19 A3001 RMK A01 T02910186  RH  053%=      5-min Rain = 0
KMC1 160311Z 14004KT 29/19 A3001 RMK A01 T02920186  RH  053%=      5-min Rain = 0
KMC1 160312Z 15005KT 29/19 A3001 RMK A01 T02910186  RH  053%=      5-min Rain = 0
KMC1 160313Z 15005KT 29/19 A3001 RMK A01 T02910187  RH  053%=      5-min Rain = 0
KMC1 160314Z 14005KT 29/19 A3001 RMK A01 T02910187  RH  054%=      5-min Rain = 0
KMC1 160315Z 15005KT 29/19 A3001 RMK A01 T02900187  RH  054%=      5-min Rain = 0
KMC1 160316Z 15005KT 29/19 A3001 RMK A01 T02900187  RH  054%=      5-min Rain = 0
KMC1 160317Z 15005KT 29/19 A3001 RMK A01 T02900187  RH  054%=      5-min Rain = 0
KMC1 160318Z 15004KT 29/19 A3001 RMK A01 T02900187  RH  054%=      5-min Rain = 0
KMC1 160319Z 15005KT 29/19 A3001 RMK A01 T02890187  RH  054%=      5-min Rain = 0
KMC1 160320Z 15004KT 29/19 A3001 RMK A01 T02890188  RH  054%=      5-min Rain = 0
KMC1 160321Z 15005KT 29/19 A3001 RMK A01 T02890187  RH  054%=      5-min Rain = 0
KMC1 160322Z 15004KT 29/19 A3001 RMK A01 T02890187  RH  054%=      5-min Rain = 0
KMC1 160323Z 15005KT 29/19 A3001 RMK A01 T02890187  RH  054%=      5-min Rain = 0
KMC1 160324Z 15005KT 29/19 A3001 RMK A01 T02880187  RH  054%=      5-min Rain = 0
KMC1 160325Z 15005KT 29/19 A3001 RMK A01 T02880187  RH  055%=      5-min Rain = 0
KMC1 160326Z 15005KT 29/19 A3001 RMK A01 T02870187  RH  055%=      5-min Rain = 0
KMC1 160327Z 15005KT 29/19 A3001 RMK A01 T02870187  RH  055%=      5-min Rain = 0
KMC1 160328Z 15004KT 29/19 A3001 RMK A01 T02870187  RH  055%=      5-min Rain = 0
KMC1 160329Z 15005KT 29/19 A3001 RMK A01 T02860187  RH  055%=      5-min Rain = 0
KMC1 160330Z 15005KT 29/19 A3001 RMK A01 T02860187  RH  055%=      5-min Rain = 0
KMC1 160331Z 16005KT 29/19 A3001 RMK A01 T02860187  RH  055%=      5-min Rain = 0
KMC1 160332Z 16005KT 29/19 A3001 RMK A01 T02860187  RH  055%=      5-min Rain = 0
KMC1 160333Z 16004KT 29/19 A3001 RMK A01 T02850187  RH  055%=      5-min Rain = 0
KMC1 160334Z 16006KT 29/19 A3001 RMK A01 T02850187  RH  055%=      5-min Rain = 0
KMC1 160335Z 15004KT 29/19 A3001 RMK A01 T02850187  RH  055%=      5-min Rain = 0
KMC1 160336Z 16005KT 29/19 A3001 RMK A01 T02850187  RH  055%=      5-min Rain = 0
KMC1 160337Z 16004KT 28/19 A3001 RMK A01 T02840187  RH  055%=      5-min Rain = 0
KMC1 160338Z 15004KT 28/19 A3001 RMK A01 T02840187  RH  056%=      5-min Rain = 0
KMC1 160339Z 15004KT 28/19 A3001 RMK A01 T02840187  RH  056%=      5-min Rain = 0
KMC1 160340Z 15004KT 28/19 A3001 RMK A01 T02840187  RH  056%=      5-min Rain = 0
KMC1 160341Z 15005KT 28/19 A3001 RMK A01 T02830187  RH  056%=      5-min Rain = 0
KMC1 160342Z 15004KT 28/19 A3001 RMK A01 T02830187  RH  056%=      5-min Rain = 0
KMC1 160343Z 15004KT 28/19 A3001 RMK A01 T02830187  RH  056%=      5-min Rain = 0
KMC1 160344Z 15004KT 28/19 A3001 RMK A01 T02820186  RH  056%=      5-min Rain = 0
KMC1 160345Z 15004KT 28/19 A3001 RMK A01 T02820186  RH  056%=      5-min Rain = 0
KMC1 160346Z 15005KT 28/19 A3001 RMK A01 T02820187  RH  056%=      5-min Rain = 0
KMC1 160347Z 15005KT 28/19 A3001 RMK A01 T02810186  RH  056%=      5-min Rain = 0
KMC1 160348Z 14005KT 28/19 A3001 RMK A01 T02810186  RH  056%=      5-min Rain = 0
KMC1 160349Z 14004KT 28/19 A3001 RMK A01 T02810186  RH  056%=      5-min Rain = 0
KMC1 160350Z 15004KT 28/19 A3001 RMK A01 T02810186  RH  056%=      5-min Rain = 0
KMC1 160351Z 15005KT 28/19 A3001 RMK A01 T02810187  RH  057%=      5-min Rain = 0
KMC1 160352Z 15004KT 28/19 A3001 RMK A01 T02810186  RH  057%=      5-min Rain = 0
KMC1 160353Z 14005KT 28/19 A3002 RMK A01 T02810186  RH  057%=      5-min Rain = 0
KMC1 160354Z 15004KT 28/19 A3002 RMK A01 T02800186  RH  057%=      5-min Rain = 0
KMC1 160355Z 14004KT 28/19 A3002 RMK A01 T02800186  RH  057%=      5-min Rain = 0
KMC1 160356Z 15004KT 28/19 A3002 RMK A01 T02800186  RH  057%=      5-min Rain = 0
KMC1 160357Z 15003KT 28/19 A3002 RMK A01 T02800186  RH  057%=      5-min Rain = 0
KMC1 160358Z 15004KT 28/19 A3002 RMK A01 T02800186  RH  057%=      5-min Rain = 0
KMC1 160359Z 15004KT 28/19 A3002 RMK A01 T02800186  RH  056%=      5-min Rain = 0
KMC1 160400Z 14004KT 28/19 A3002 RMK A01 T02800186  RH  057%=      5-min Rain = 0
KMC1 160401Z 15004KT 28/19 A3002 RMK A01 T02800186  RH  057%=      5-min Rain = 0
KMC1 160402Z 14005KT 28/19 A3002 RMK A01 T02800186  RH  057%=      5-min Rain = 0
KMC1 160403Z 14004KT 28/19 A3002 RMK A01 T02800186  RH  057%=      5-min Rain = 0
KMC1 160404Z 14005KT 28/19 A3002 RMK A01 T02800186  RH  057%=      5-min Rain = 0
KMC1 160405Z 14004KT 28/19 A3002 RMK A01 T02800186  RH  057%=      5-min Rain = 0
KMC1 160406Z 14005KT 28/19 A3002 RMK A01 T02800186  RH  057%=      5-min Rain = 0
KMC1 160407Z 13005KT 28/19 A3002 RMK A01 T02800186  RH  057%=      5-min Rain = 0
KMC1 160408Z 14004KT 28/19 A3002 RMK A01 T02800186  RH  057%=      5-min Rain = 0
KMC1 160409Z 14004KT 28/19 A3002 RMK A01 T02800186  RH  057%=      5-min Rain = 0
KMC1 160410Z 14004KT 28/19 A3002 RMK A01 T02800186  RH  057%=      5-min Rain = 0
KMC1 160411Z 14003KT 28/19 A3002 RMK A01 T02800186  RH  057%=      5-min Rain = 0
KMC1 160412Z 14003KT 28/19 A3002 RMK A01 T02800186  RH  057%=      5-min Rain = 0
KMC1 160413Z 14004KT 28/19 A3002 RMK A01 T02800186  RH  057%=      5-min Rain = 0
KMC1 160414Z 14003KT 28/19 A3002 RMK A01 T02800186  RH  057%=      5-min Rain = 0
KMC1 160415Z 14003KT 28/19 A3002 RMK A01 T02800186  RH  057%=      5-min Rain = 0
KMC1 160416Z 14003KT 28/19 A3002 RMK A01 T02800186  RH  057%=      5-min Rain = 0
KMC1 160417Z 14003KT 28/19 A3002 RMK A01 T02800186  RH  057%=      5-min Rain = 0
KMC1 160418Z 14003KT 28/19 A3002 RMK A01 T02800186  RH  057%=      5-min Rain = 0
KMC1 160419Z 14003KT 28/19 A3002 RMK A01 T02800186  RH  057%=      5-min Rain = 0
KMC1 160420Z 14003KT 28/19 A3002 RMK A01 T02800186  RH  057%=      5-min Rain = 0
KMC1 160421Z 14004KT 28/19 A3002 RMK A01 T02790186  RH  057%=      5-min Rain = 0
KMC1 160422Z 14003KT 28/19 A3002 RMK A01 T02790186  RH  057%=      5-min Rain = 0
KMC1 160423Z 14004KT 28/19 A3002 RMK A01 T02790186  RH  057%=      5-min Rain = 0
KMC1 160424Z 14003KT 28/19 A3002 RMK A01 T02790186  RH  057%=      5-min Rain = 0
KMC1 160425Z 14003KT 28/19 A3002 RMK A01 T02790186  RH  057%=      5-min Rain = 0
KMC1 160426Z 14004KT 28/19 A3002 RMK A01 T02790186  RH  057%=      5-min Rain = 0
KMC1 160427Z 14004KT 28/19 A3002 RMK A01 T02790186  RH  057%=      5-min Rain = 0
KMC1 160428Z 15004KT 28/19 A3002 RMK A01 T02790186  RH  057%=      5-min Rain = 0
KMC1 160429Z 15003KT 28/19 A3002 RMK A01 T02790186  RH  057%=      5-min Rain = 0
KMC1 160430Z 15003KT 28/19 A3002 RMK A01 T02780186  RH  057%=      5-min Rain = 0
KMC1 160431Z 16003KT 28/19 A3002 RMK A01 T02780186  RH  057%=      5-min Rain = 0
KMC1 160432Z 15003KT 28/19 A3002 RMK A01 T02780186  RH  057%=      5-min Rain = 0
KMC1 160433Z 15003KT 28/19 A3002 RMK A01 T02770185  RH  057%=      5-min Rain = 0
KMC1 160434Z 15003KT 28/19 A3002 RMK A01 T02770185  RH  057%=      5-min Rain = 0
KMC1 160435Z 15003KT 28/19 A3002 RMK A01 T02770185  RH  057%=      5-min Rain = 0
KMC1 160436Z 16003KT 28/19 A3002 RMK A01 T02770185  RH  057%=      5-min Rain = 0
KMC1 160437Z 15004KT 28/19 A3002 RMK A01 T02770185  RH  057%=      5-min Rain = 0
KMC1 160438Z 15003KT 28/19 A3003 RMK A01 T02760185  RH  057%=      5-min Rain = 0
KMC1 160439Z 14003KT 28/19 A3003 RMK A01 T02760185  RH  057%=      5-min Rain = 0
KMC1 160440Z 14003KT 28/19 A3003 RMK A01 T02760185  RH  057%=      5-min Rain = 0
KMC1 160441Z 16003KT 28/19 A3003 RMK A01 T02760185  RH  057%=      5-min Rain = 0
KMC1 160442Z 15003KT 28/19 A3003 RMK A01 T02760185  RH  058%=      5-min Rain = 0
KMC1 160443Z 14003KT 28/19 A3003 RMK A01 T02750185  RH  058%=      5-min Rain = 0
KMC1 160444Z 15003KT 28/18 A3003 RMK A01 T02750184  RH  058%=      5-min Rain = 0
KMC1 160445Z 15003KT 28/19 A3003 RMK A01 T02750185  RH  058%=      5-min Rain = 0
KMC1 160446Z 15003KT 28/19 A3003 RMK A01 T02750185  RH  058%=      5-min Rain = 0
KMC1 160447Z 16002KT 27/18 A3003 RMK A01 T02740184  RH  058%=      5-min Rain = 0
KMC1 160448Z 16003KT 27/18 A3003 RMK A01 T02740184  RH  058%=      5-min Rain = 0
KMC1 160449Z 16003KT 27/18 A3003 RMK A01 T02740184  RH  058%=      5-min Rain = 0
KMC1 160450Z 16003KT 27/18 A3003 RMK A01 T02730184  RH  058%=      5-min Rain = 0
KMC1 160451Z 16003KT 27/18 A3003 RMK A01 T02730184  RH  058%=      5-min Rain = 0
KMC1 160452Z 15003KT 27/18 A3003 RMK A01 T02730184  RH  058%=      5-min Rain = 0
KMC1 160453Z 16003KT 27/18 A3003 RMK A01 T02730183  RH  058%=      5-min Rain = 0
KMC1 160454Z 16003KT 27/18 A3003 RMK A01 T02730184  RH  058%=      5-min Rain = 0
KMC1 160455Z 16003KT 27/18 A3003 RMK A01 T02730184  RH  058%=      5-min Rain = 0
KMC1 160456Z 16003KT 27/18 A3003 RMK A01 T02720184  RH  058%=      5-min Rain = 0
KMC1 160457Z 16003KT 27/18 A3003 RMK A01 T02720184  RH  059%=      5-min Rain = 0
KMC1 160458Z 16004KT 27/18 A3003 RMK A01 T02720184  RH  058%=      5-min Rain = 0
KMC1 160459Z 15003KT 27/18 A3003 RMK A01 T02720184  RH  058%=      5-min Rain = 0

Page generated in 0.0816 seconds.